<?xml version="1.0" encoding="UTF-8" standalone="no" ?>
<gpx xmlns="http://www.topografix.com/GPX/1/1" xmlns:xsi="http://www.w3.org/2001/XMLSchema-instance" xsi:schemaLocation="http://www.topografix.com/GPX/1/1 http://www.topografix.com/GPX/1/1/gpx.xsd" version="1.1" creator="VisuGPX - https://www.visugpx.com">
  <metadata>
    <name>31 déc. 2021</name>
    <desc><![CDATA[grp_trc:]]></desc>
  </metadata>
  <trk>
    <name><![CDATA[31 déc. 2021]]></name>
    <cmt><![CDATA[08:59:38]]></cmt>
    <desc><![CDATA[comment ...]]></desc>
    <trkseg>
      <trkpt lat="42.85143" lon="0.27297">
        <ele>1426</ele>
        <time>2021-12-31T07:59:39Z</time>
      </trkpt>
      <trkpt lat="42.85145" lon="0.27294">
        <ele>1392</ele>
        <time>2021-12-31T07:59:41Z</time>
      </trkpt>
      <trkpt lat="42.85152" lon="0.2729">
        <ele>1370</ele>
        <time>2021-12-31T08:00:57Z</time>
      </trkpt>
      <trkpt lat="42.85144" lon="0.27272">
        <ele>1370</ele>
        <time>2021-12-31T08:01:14Z</time>
      </trkpt>
      <trkpt lat="42.85169" lon="0.27251">
        <ele>1364</ele>
        <time>2021-12-31T08:02:24Z</time>
      </trkpt>
      <trkpt lat="42.85185" lon="0.27219">
        <ele>1369</ele>
        <time>2021-12-31T08:02:58Z</time>
      </trkpt>
      <trkpt lat="42.85202" lon="0.27185">
        <ele>1372</ele>
        <time>2021-12-31T08:03:36Z</time>
      </trkpt>
      <trkpt lat="42.85219" lon="0.27152">
        <ele>1373</ele>
        <time>2021-12-31T08:04:18Z</time>
      </trkpt>
      <trkpt lat="42.85244" lon="0.2713">
        <ele>1372</ele>
        <time>2021-12-31T08:04:50Z</time>
      </trkpt>
      <trkpt lat="42.85274" lon="0.27126">
        <ele>1376</ele>
        <time>2021-12-31T08:05:29Z</time>
      </trkpt>
      <trkpt lat="42.853" lon="0.27109">
        <ele>1374</ele>
        <time>2021-12-31T08:06:29Z</time>
      </trkpt>
      <trkpt lat="42.85325" lon="0.27086">
        <ele>1371</ele>
        <time>2021-12-31T08:07:03Z</time>
      </trkpt>
      <trkpt lat="42.85349" lon="0.27061">
        <ele>1377</ele>
        <time>2021-12-31T08:07:46Z</time>
      </trkpt>
      <trkpt lat="42.85375" lon="0.27044">
        <ele>1394</ele>
        <time>2021-12-31T08:08:24Z</time>
      </trkpt>
      <trkpt lat="42.85402" lon="0.27029">
        <ele>1402</ele>
        <time>2021-12-31T08:09:08Z</time>
      </trkpt>
      <trkpt lat="42.85428" lon="0.27011">
        <ele>1420</ele>
        <time>2021-12-31T08:10:34Z</time>
      </trkpt>
      <trkpt lat="42.85452" lon="0.26989">
        <ele>1422</ele>
        <time>2021-12-31T08:11:21Z</time>
      </trkpt>
      <trkpt lat="42.85478" lon="0.26972">
        <ele>1428</ele>
        <time>2021-12-31T08:12:10Z</time>
      </trkpt>
      <trkpt lat="42.85502" lon="0.26947">
        <ele>1432</ele>
        <time>2021-12-31T08:12:57Z</time>
      </trkpt>
      <trkpt lat="42.85528" lon="0.26929">
        <ele>1442</ele>
        <time>2021-12-31T08:13:52Z</time>
      </trkpt>
      <trkpt lat="42.85547" lon="0.269">
        <ele>1448</ele>
        <time>2021-12-31T08:14:30Z</time>
      </trkpt>
      <trkpt lat="42.85573" lon="0.26882">
        <ele>1468</ele>
        <time>2021-12-31T08:15:23Z</time>
      </trkpt>
      <trkpt lat="42.85594" lon="0.26855">
        <ele>1473</ele>
        <time>2021-12-31T08:16:05Z</time>
      </trkpt>
      <trkpt lat="42.85618" lon="0.26832">
        <ele>1486</ele>
        <time>2021-12-31T08:16:47Z</time>
      </trkpt>
      <trkpt lat="42.85623" lon="0.26793">
        <ele>1490</ele>
        <time>2021-12-31T08:17:35Z</time>
      </trkpt>
      <trkpt lat="42.85636" lon="0.26758">
        <ele>1504</ele>
        <time>2021-12-31T08:18:27Z</time>
      </trkpt>
      <trkpt lat="42.85659" lon="0.26733">
        <ele>1509</ele>
        <time>2021-12-31T08:19:09Z</time>
      </trkpt>
      <trkpt lat="42.85682" lon="0.26715">
        <ele>1522</ele>
        <time>2021-12-31T08:19:47Z</time>
      </trkpt>
      <trkpt lat="42.85692" lon="0.26701">
        <ele>1525</ele>
        <time>2021-12-31T08:20:19Z</time>
      </trkpt>
      <trkpt lat="42.85698" lon="0.26682">
        <ele>1531</ele>
        <time>2021-12-31T08:20:44Z</time>
      </trkpt>
      <trkpt lat="42.85723" lon="0.26662">
        <ele>1532</ele>
        <time>2021-12-31T08:21:32Z</time>
      </trkpt>
      <trkpt lat="42.85738" lon="0.26649">
        <ele>1541</ele>
        <time>2021-12-31T08:23:35Z</time>
      </trkpt>
      <trkpt lat="42.85745" lon="0.26631">
        <ele>1547</ele>
        <time>2021-12-31T08:23:52Z</time>
      </trkpt>
      <trkpt lat="42.85748" lon="0.26612">
        <ele>1550</ele>
        <time>2021-12-31T08:24:15Z</time>
      </trkpt>
      <trkpt lat="42.85754" lon="0.26593">
        <ele>1553</ele>
        <time>2021-12-31T08:24:38Z</time>
      </trkpt>
      <trkpt lat="42.8576" lon="0.26575">
        <ele>1558</ele>
        <time>2021-12-31T08:25:03Z</time>
      </trkpt>
      <trkpt lat="42.85767" lon="0.26557">
        <ele>1564</ele>
        <time>2021-12-31T08:25:41Z</time>
      </trkpt>
      <trkpt lat="42.85776" lon="0.26542">
        <ele>1570</ele>
        <time>2021-12-31T08:26:07Z</time>
      </trkpt>
      <trkpt lat="42.85779" lon="0.26522">
        <ele>1575</ele>
        <time>2021-12-31T08:26:39Z</time>
      </trkpt>
      <trkpt lat="42.85786" lon="0.26505">
        <ele>1579</ele>
        <time>2021-12-31T08:27:10Z</time>
      </trkpt>
      <trkpt lat="42.85793" lon="0.26488">
        <ele>1584</ele>
        <time>2021-12-31T08:27:35Z</time>
      </trkpt>
      <trkpt lat="42.858" lon="0.26469">
        <ele>1589</ele>
        <time>2021-12-31T08:28:01Z</time>
      </trkpt>
      <trkpt lat="42.85804" lon="0.26449">
        <ele>1593</ele>
        <time>2021-12-31T08:28:39Z</time>
      </trkpt>
      <trkpt lat="42.85808" lon="0.2643">
        <ele>1599</ele>
        <time>2021-12-31T08:28:59Z</time>
      </trkpt>
      <trkpt lat="42.85818" lon="0.26414">
        <ele>1602</ele>
        <time>2021-12-31T08:29:24Z</time>
      </trkpt>
      <trkpt lat="42.85823" lon="0.26396">
        <ele>1610</ele>
        <time>2021-12-31T08:29:57Z</time>
      </trkpt>
      <trkpt lat="42.85834" lon="0.26382">
        <ele>1613</ele>
        <time>2021-12-31T08:30:34Z</time>
      </trkpt>
      <trkpt lat="42.85843" lon="0.26367">
        <ele>1620</ele>
        <time>2021-12-31T08:31:05Z</time>
      </trkpt>
      <trkpt lat="42.85855" lon="0.26354">
        <ele>1622</ele>
        <time>2021-12-31T08:31:34Z</time>
      </trkpt>
      <trkpt lat="42.85869" lon="0.26354">
        <ele>1625</ele>
        <time>2021-12-31T08:32:18Z</time>
      </trkpt>
      <trkpt lat="42.85879" lon="0.26339">
        <ele>1632</ele>
        <time>2021-12-31T08:32:41Z</time>
      </trkpt>
      <trkpt lat="42.85888" lon="0.26324">
        <ele>1634</ele>
        <time>2021-12-31T08:33:02Z</time>
      </trkpt>
      <trkpt lat="42.85899" lon="0.2631">
        <ele>1638</ele>
        <time>2021-12-31T08:33:24Z</time>
      </trkpt>
      <trkpt lat="42.85911" lon="0.26297">
        <ele>1642</ele>
        <time>2021-12-31T08:33:54Z</time>
      </trkpt>
      <trkpt lat="42.85924" lon="0.26287">
        <ele>1645</ele>
        <time>2021-12-31T08:34:12Z</time>
      </trkpt>
      <trkpt lat="42.85938" lon="0.26279">
        <ele>1649</ele>
        <time>2021-12-31T08:34:28Z</time>
      </trkpt>
      <trkpt lat="42.85952" lon="0.26274">
        <ele>1651</ele>
        <time>2021-12-31T08:34:43Z</time>
      </trkpt>
      <trkpt lat="42.85973" lon="0.26266">
        <ele>1655</ele>
        <time>2021-12-31T08:35:07Z</time>
      </trkpt>
      <trkpt lat="42.85977" lon="0.26265">
        <ele>1656</ele>
        <time>2021-12-31T08:35:12Z</time>
      </trkpt>
      <trkpt lat="42.85981" lon="0.26265">
        <ele>1657</ele>
        <time>2021-12-31T08:35:22Z</time>
      </trkpt>
      <trkpt lat="42.85985" lon="0.26266">
        <ele>1658</ele>
        <time>2021-12-31T08:35:29Z</time>
      </trkpt>
      <trkpt lat="42.86" lon="0.26262">
        <ele>1661</ele>
        <time>2021-12-31T08:35:50Z</time>
      </trkpt>
      <trkpt lat="42.86011" lon="0.26254">
        <ele>1666</ele>
        <time>2021-12-31T08:36:10Z</time>
      </trkpt>
      <trkpt lat="42.86025" lon="0.26237">
        <ele>1672</ele>
        <time>2021-12-31T08:36:40Z</time>
      </trkpt>
      <trkpt lat="42.86028" lon="0.26234">
        <ele>1674</ele>
        <time>2021-12-31T08:36:47Z</time>
      </trkpt>
      <trkpt lat="42.86032" lon="0.26231">
        <ele>1675</ele>
        <time>2021-12-31T08:36:52Z</time>
      </trkpt>
      <trkpt lat="42.86035" lon="0.26227">
        <ele>1676</ele>
        <time>2021-12-31T08:36:57Z</time>
      </trkpt>
      <trkpt lat="42.86046" lon="0.26214">
        <ele>1677</ele>
        <time>2021-12-31T08:37:28Z</time>
      </trkpt>
      <trkpt lat="42.86059" lon="0.26205">
        <ele>1681</ele>
        <time>2021-12-31T08:37:47Z</time>
      </trkpt>
      <trkpt lat="42.86073" lon="0.26199">
        <ele>1683</ele>
        <time>2021-12-31T08:38:09Z</time>
      </trkpt>
      <trkpt lat="42.86079" lon="0.26193">
        <ele>1686</ele>
        <time>2021-12-31T08:38:18Z</time>
      </trkpt>
      <trkpt lat="42.86083" lon="0.2619">
        <ele>1688</ele>
        <time>2021-12-31T08:38:23Z</time>
      </trkpt>
      <trkpt lat="42.86087" lon="0.2619">
        <ele>1689</ele>
        <time>2021-12-31T08:38:32Z</time>
      </trkpt>
      <trkpt lat="42.8609" lon="0.26188">
        <ele>1690</ele>
        <time>2021-12-31T08:38:37Z</time>
      </trkpt>
      <trkpt lat="42.86095" lon="0.26187">
        <ele>1691</ele>
        <time>2021-12-31T08:38:44Z</time>
      </trkpt>
      <trkpt lat="42.8611" lon="0.26192">
        <ele>1694</ele>
        <time>2021-12-31T08:39:10Z</time>
      </trkpt>
      <trkpt lat="42.86118" lon="0.26189">
        <ele>1698</ele>
        <time>2021-12-31T08:39:22Z</time>
      </trkpt>
      <trkpt lat="42.86133" lon="0.26188">
        <ele>1700</ele>
        <time>2021-12-31T08:39:57Z</time>
      </trkpt>
      <trkpt lat="42.86147" lon="0.2619">
        <ele>1706</ele>
        <time>2021-12-31T08:40:21Z</time>
      </trkpt>
      <trkpt lat="42.86162" lon="0.2619">
        <ele>1708</ele>
        <time>2021-12-31T08:40:47Z</time>
      </trkpt>
      <trkpt lat="42.86177" lon="0.26187">
        <ele>1715</ele>
        <time>2021-12-31T08:41:17Z</time>
      </trkpt>
      <trkpt lat="42.86192" lon="0.26185">
        <ele>1716</ele>
        <time>2021-12-31T08:41:41Z</time>
      </trkpt>
      <trkpt lat="42.86206" lon="0.26183">
        <ele>1719</ele>
        <time>2021-12-31T08:42:08Z</time>
      </trkpt>
      <trkpt lat="42.86216" lon="0.26199">
        <ele>1722</ele>
        <time>2021-12-31T08:42:42Z</time>
      </trkpt>
      <trkpt lat="42.8623" lon="0.26206">
        <ele>1730</ele>
        <time>2021-12-31T08:43:17Z</time>
      </trkpt>
      <trkpt lat="42.8623" lon="0.26227">
        <ele>1732</ele>
        <time>2021-12-31T08:43:48Z</time>
      </trkpt>
      <trkpt lat="42.86241" lon="0.2624">
        <ele>1739</ele>
        <time>2021-12-31T08:44:29Z</time>
      </trkpt>
      <trkpt lat="42.86255" lon="0.26244">
        <ele>1743</ele>
        <time>2021-12-31T08:44:50Z</time>
      </trkpt>
      <trkpt lat="42.86285" lon="0.26243">
        <ele>1747</ele>
        <time>2021-12-31T08:45:33Z</time>
      </trkpt>
      <trkpt lat="42.86299" lon="0.26245">
        <ele>1750</ele>
        <time>2021-12-31T08:46:02Z</time>
      </trkpt>
      <trkpt lat="42.86314" lon="0.26248">
        <ele>1753</ele>
        <time>2021-12-31T08:46:25Z</time>
      </trkpt>
      <trkpt lat="42.8632" lon="0.26267">
        <ele>1757</ele>
        <time>2021-12-31T08:47:05Z</time>
      </trkpt>
      <trkpt lat="42.86314" lon="0.26285">
        <ele>1768</ele>
        <time>2021-12-31T08:47:30Z</time>
      </trkpt>
      <trkpt lat="42.86317" lon="0.26305">
        <ele>1773</ele>
        <time>2021-12-31T08:47:57Z</time>
      </trkpt>
      <trkpt lat="42.8633" lon="0.26311">
        <ele>1781</ele>
        <time>2021-12-31T08:48:20Z</time>
      </trkpt>
      <trkpt lat="42.86344" lon="0.2632">
        <ele>1784</ele>
        <time>2021-12-31T08:48:44Z</time>
      </trkpt>
      <trkpt lat="42.86359" lon="0.26319">
        <ele>1787</ele>
        <time>2021-12-31T08:49:07Z</time>
      </trkpt>
      <trkpt lat="42.86363" lon="0.26338">
        <ele>1791</ele>
        <time>2021-12-31T08:49:33Z</time>
      </trkpt>
      <trkpt lat="42.86364" lon="0.26343">
        <ele>1795</ele>
        <time>2021-12-31T08:49:40Z</time>
      </trkpt>
      <trkpt lat="42.86369" lon="0.2635">
        <ele>1798</ele>
        <time>2021-12-31T08:49:55Z</time>
      </trkpt>
      <trkpt lat="42.86381" lon="0.26352">
        <ele>1801</ele>
        <time>2021-12-31T08:50:17Z</time>
      </trkpt>
      <trkpt lat="42.86385" lon="0.26352">
        <ele>1803</ele>
        <time>2021-12-31T08:50:27Z</time>
      </trkpt>
      <trkpt lat="42.8639" lon="0.26355">
        <ele>1805</ele>
        <time>2021-12-31T08:50:37Z</time>
      </trkpt>
      <trkpt lat="42.86392" lon="0.26359">
        <ele>1808</ele>
        <time>2021-12-31T08:50:44Z</time>
      </trkpt>
      <trkpt lat="42.86391" lon="0.26364">
        <ele>1809</ele>
        <time>2021-12-31T08:50:51Z</time>
      </trkpt>
      <trkpt lat="42.86391" lon="0.2637">
        <ele>1812</ele>
        <time>2021-12-31T08:50:57Z</time>
      </trkpt>
      <trkpt lat="42.86391" lon="0.26375">
        <ele>1813</ele>
        <time>2021-12-31T08:51:05Z</time>
      </trkpt>
      <trkpt lat="42.86389" lon="0.2638">
        <ele>1816</ele>
        <time>2021-12-31T08:51:14Z</time>
      </trkpt>
      <trkpt lat="42.86392" lon="0.26382">
        <ele>1817</ele>
        <time>2021-12-31T08:51:28Z</time>
      </trkpt>
      <trkpt lat="42.86396" lon="0.26381">
        <ele>1818</ele>
        <time>2021-12-31T08:51:33Z</time>
      </trkpt>
      <trkpt lat="42.864" lon="0.26381">
        <ele>1821</ele>
        <time>2021-12-31T08:51:41Z</time>
      </trkpt>
      <trkpt lat="42.86403" lon="0.26378">
        <ele>1822</ele>
        <time>2021-12-31T08:51:49Z</time>
      </trkpt>
      <trkpt lat="42.86408" lon="0.26377">
        <ele>1825</ele>
        <time>2021-12-31T08:51:59Z</time>
      </trkpt>
      <trkpt lat="42.86413" lon="0.26374">
        <ele>1825</ele>
        <time>2021-12-31T08:52:05Z</time>
      </trkpt>
      <trkpt lat="42.86419" lon="0.26375">
        <ele>1828</ele>
        <time>2021-12-31T08:52:14Z</time>
      </trkpt>
      <trkpt lat="42.86424" lon="0.26376">
        <ele>1830</ele>
        <time>2021-12-31T08:52:34Z</time>
      </trkpt>
      <trkpt lat="42.86425" lon="0.26392">
        <ele>1835</ele>
        <time>2021-12-31T08:52:51Z</time>
      </trkpt>
      <trkpt lat="42.86428" lon="0.26397">
        <ele>1836</ele>
        <time>2021-12-31T08:53:07Z</time>
      </trkpt>
      <trkpt lat="42.8643" lon="0.26401">
        <ele>1837</ele>
        <time>2021-12-31T08:53:12Z</time>
      </trkpt>
      <trkpt lat="42.86433" lon="0.26397">
        <ele>1838</ele>
        <time>2021-12-31T08:53:20Z</time>
      </trkpt>
      <trkpt lat="42.8644" lon="0.26393">
        <ele>1840</ele>
        <time>2021-12-31T08:53:40Z</time>
      </trkpt>
      <trkpt lat="42.86443" lon="0.26394">
        <ele>1842</ele>
        <time>2021-12-31T08:53:44Z</time>
      </trkpt>
      <trkpt lat="42.86443" lon="0.264">
        <ele>1844</ele>
        <time>2021-12-31T08:54:03Z</time>
      </trkpt>
      <trkpt lat="42.86447" lon="0.2642">
        <ele>1849</ele>
        <time>2021-12-31T08:55:27Z</time>
      </trkpt>
      <trkpt lat="42.86461" lon="0.26425">
        <ele>1853</ele>
        <time>2021-12-31T08:56:03Z</time>
      </trkpt>
      <trkpt lat="42.86463" lon="0.26445">
        <ele>1860</ele>
        <time>2021-12-31T08:57:40Z</time>
      </trkpt>
      <trkpt lat="42.86475" lon="0.26455">
        <ele>1862</ele>
        <time>2021-12-31T08:58:17Z</time>
      </trkpt>
      <trkpt lat="42.86462" lon="0.26465">
        <ele>1872</ele>
        <time>2021-12-31T08:59:00Z</time>
      </trkpt>
      <trkpt lat="42.86473" lon="0.26478">
        <ele>1878</ele>
        <time>2021-12-31T08:59:44Z</time>
      </trkpt>
      <trkpt lat="42.86477" lon="0.26479">
        <ele>1881</ele>
        <time>2021-12-31T09:00:02Z</time>
      </trkpt>
      <trkpt lat="42.86481" lon="0.2648">
        <ele>1882</ele>
        <time>2021-12-31T09:00:06Z</time>
      </trkpt>
      <trkpt lat="42.86485" lon="0.26479">
        <ele>1883</ele>
        <time>2021-12-31T09:00:15Z</time>
      </trkpt>
      <trkpt lat="42.86488" lon="0.26479">
        <ele>1884</ele>
        <time>2021-12-31T09:00:27Z</time>
      </trkpt>
      <trkpt lat="42.86492" lon="0.2648">
        <ele>1885</ele>
        <time>2021-12-31T09:00:34Z</time>
      </trkpt>
      <trkpt lat="42.86499" lon="0.26477">
        <ele>1887</ele>
        <time>2021-12-31T09:00:44Z</time>
      </trkpt>
      <trkpt lat="42.86506" lon="0.26473">
        <ele>1889</ele>
        <time>2021-12-31T09:00:58Z</time>
      </trkpt>
      <trkpt lat="42.8651" lon="0.26471">
        <ele>1891</ele>
        <time>2021-12-31T09:01:03Z</time>
      </trkpt>
      <trkpt lat="42.86513" lon="0.26469">
        <ele>1892</ele>
        <time>2021-12-31T09:01:10Z</time>
      </trkpt>
      <trkpt lat="42.86517" lon="0.26469">
        <ele>1895</ele>
        <time>2021-12-31T09:01:25Z</time>
      </trkpt>
      <trkpt lat="42.8652" lon="0.26467">
        <ele>1896</ele>
        <time>2021-12-31T09:01:40Z</time>
      </trkpt>
      <trkpt lat="42.86524" lon="0.26467">
        <ele>1896</ele>
        <time>2021-12-31T09:01:46Z</time>
      </trkpt>
      <trkpt lat="42.86529" lon="0.26466">
        <ele>1897</ele>
        <time>2021-12-31T09:01:56Z</time>
      </trkpt>
      <trkpt lat="42.86532" lon="0.26464">
        <ele>1898</ele>
        <time>2021-12-31T09:02:04Z</time>
      </trkpt>
      <trkpt lat="42.86536" lon="0.26462">
        <ele>1898</ele>
        <time>2021-12-31T09:02:15Z</time>
      </trkpt>
      <trkpt lat="42.8654" lon="0.26461">
        <ele>1900</ele>
        <time>2021-12-31T09:02:19Z</time>
      </trkpt>
      <trkpt lat="42.86549" lon="0.26462">
        <ele>1901</ele>
        <time>2021-12-31T09:02:32Z</time>
      </trkpt>
      <trkpt lat="42.86553" lon="0.26459">
        <ele>1902</ele>
        <time>2021-12-31T09:02:36Z</time>
      </trkpt>
      <trkpt lat="42.86557" lon="0.26456">
        <ele>1902</ele>
        <time>2021-12-31T09:02:41Z</time>
      </trkpt>
      <trkpt lat="42.8656" lon="0.26453">
        <ele>1903</ele>
        <time>2021-12-31T09:02:46Z</time>
      </trkpt>
      <trkpt lat="42.86564" lon="0.26447">
        <ele>1904</ele>
        <time>2021-12-31T09:02:53Z</time>
      </trkpt>
      <trkpt lat="42.86573" lon="0.26439">
        <ele>1905</ele>
        <time>2021-12-31T09:03:07Z</time>
      </trkpt>
      <trkpt lat="42.86581" lon="0.26432">
        <ele>1905</ele>
        <time>2021-12-31T09:03:21Z</time>
      </trkpt>
      <trkpt lat="42.86584" lon="0.26429">
        <ele>1905</ele>
        <time>2021-12-31T09:03:28Z</time>
      </trkpt>
      <trkpt lat="42.86588" lon="0.26422">
        <ele>1905</ele>
        <time>2021-12-31T09:03:36Z</time>
      </trkpt>
      <trkpt lat="42.86592" lon="0.26416">
        <ele>1907</ele>
        <time>2021-12-31T09:03:48Z</time>
      </trkpt>
      <trkpt lat="42.86597" lon="0.26411">
        <ele>1907</ele>
        <time>2021-12-31T09:03:56Z</time>
      </trkpt>
      <trkpt lat="42.86597" lon="0.26405">
        <ele>1908</ele>
        <time>2021-12-31T09:04:03Z</time>
      </trkpt>
      <trkpt lat="42.86602" lon="0.26401">
        <ele>1909</ele>
        <time>2021-12-31T09:04:11Z</time>
      </trkpt>
      <trkpt lat="42.86607" lon="0.26395">
        <ele>1911</ele>
        <time>2021-12-31T09:04:22Z</time>
      </trkpt>
      <trkpt lat="42.86611" lon="0.26392">
        <ele>1912</ele>
        <time>2021-12-31T09:04:30Z</time>
      </trkpt>
      <trkpt lat="42.86614" lon="0.26385">
        <ele>1914</ele>
        <time>2021-12-31T09:04:47Z</time>
      </trkpt>
      <trkpt lat="42.86625" lon="0.2637">
        <ele>1916</ele>
        <time>2021-12-31T09:05:06Z</time>
      </trkpt>
      <trkpt lat="42.86629" lon="0.26351">
        <ele>1925</ele>
        <time>2021-12-31T09:08:50Z</time>
      </trkpt>
      <trkpt lat="42.8664" lon="0.26364">
        <ele>1926</ele>
        <time>2021-12-31T09:09:22Z</time>
      </trkpt>
      <trkpt lat="42.8665" lon="0.2635">
        <ele>1927</ele>
        <time>2021-12-31T09:10:09Z</time>
      </trkpt>
      <trkpt lat="42.86661" lon="0.26336">
        <ele>1936</ele>
        <time>2021-12-31T09:10:34Z</time>
      </trkpt>
      <trkpt lat="42.86674" lon="0.26326">
        <ele>1942</ele>
        <time>2021-12-31T09:11:11Z</time>
      </trkpt>
      <trkpt lat="42.86688" lon="0.26332">
        <ele>1945</ele>
        <time>2021-12-31T09:11:51Z</time>
      </trkpt>
      <trkpt lat="42.867" lon="0.26321">
        <ele>1955</ele>
        <time>2021-12-31T09:12:39Z</time>
      </trkpt>
      <trkpt lat="42.86708" lon="0.26304">
        <ele>1957</ele>
        <time>2021-12-31T09:12:59Z</time>
      </trkpt>
      <trkpt lat="42.8671" lon="0.26285">
        <ele>1959</ele>
        <time>2021-12-31T09:13:21Z</time>
      </trkpt>
      <trkpt lat="42.86711" lon="0.26264">
        <ele>1964</ele>
        <time>2021-12-31T09:13:45Z</time>
      </trkpt>
      <trkpt lat="42.86718" lon="0.26247">
        <ele>1966</ele>
        <time>2021-12-31T09:14:07Z</time>
      </trkpt>
      <trkpt lat="42.86719" lon="0.26227">
        <ele>1969</ele>
        <time>2021-12-31T09:14:28Z</time>
      </trkpt>
      <trkpt lat="42.86729" lon="0.26213">
        <ele>1972</ele>
        <time>2021-12-31T09:15:02Z</time>
      </trkpt>
      <trkpt lat="42.86739" lon="0.26198">
        <ele>1974</ele>
        <time>2021-12-31T09:15:20Z</time>
      </trkpt>
      <trkpt lat="42.86752" lon="0.26188">
        <ele>1979</ele>
        <time>2021-12-31T09:15:49Z</time>
      </trkpt>
      <trkpt lat="42.86762" lon="0.26202">
        <ele>1981</ele>
        <time>2021-12-31T09:16:09Z</time>
      </trkpt>
      <trkpt lat="42.86776" lon="0.26195">
        <ele>1990</ele>
        <time>2021-12-31T09:16:28Z</time>
      </trkpt>
      <trkpt lat="42.86791" lon="0.26196">
        <ele>1991</ele>
        <time>2021-12-31T09:16:50Z</time>
      </trkpt>
      <trkpt lat="42.86791" lon="0.26176">
        <ele>1996</ele>
        <time>2021-12-31T09:17:13Z</time>
      </trkpt>
      <trkpt lat="42.86783" lon="0.26159">
        <ele>1999</ele>
        <time>2021-12-31T09:17:39Z</time>
      </trkpt>
      <trkpt lat="42.86788" lon="0.2614">
        <ele>2000</ele>
        <time>2021-12-31T09:18:02Z</time>
      </trkpt>
      <trkpt lat="42.86803" lon="0.26138">
        <ele>2004</ele>
        <time>2021-12-31T09:18:49Z</time>
      </trkpt>
      <trkpt lat="42.86817" lon="0.26143">
        <ele>2007</ele>
        <time>2021-12-31T09:19:17Z</time>
      </trkpt>
      <trkpt lat="42.86823" lon="0.26125">
        <ele>2010</ele>
        <time>2021-12-31T09:19:50Z</time>
      </trkpt>
      <trkpt lat="42.86836" lon="0.26117">
        <ele>2012</ele>
        <time>2021-12-31T09:20:34Z</time>
      </trkpt>
      <trkpt lat="42.86851" lon="0.26109">
        <ele>2019</ele>
        <time>2021-12-31T09:21:04Z</time>
      </trkpt>
      <trkpt lat="42.86864" lon="0.26101">
        <ele>2021</ele>
        <time>2021-12-31T09:21:22Z</time>
      </trkpt>
      <trkpt lat="42.86878" lon="0.26093">
        <ele>2027</ele>
        <time>2021-12-31T09:21:45Z</time>
      </trkpt>
      <trkpt lat="42.86892" lon="0.26099">
        <ele>2029</ele>
        <time>2021-12-31T09:22:02Z</time>
      </trkpt>
      <trkpt lat="42.86905" lon="0.26064">
        <ele>2040</ele>
        <time>2021-12-31T09:23:31Z</time>
      </trkpt>
      <trkpt lat="42.86922" lon="0.26031">
        <ele>2056</ele>
        <time>2021-12-31T09:24:19Z</time>
      </trkpt>
      <trkpt lat="42.86948" lon="0.26013">
        <ele>2061</ele>
        <time>2021-12-31T09:25:30Z</time>
      </trkpt>
      <trkpt lat="42.86975" lon="0.25999">
        <ele>2072</ele>
        <time>2021-12-31T09:26:22Z</time>
      </trkpt>
      <trkpt lat="42.87" lon="0.25978">
        <ele>2078</ele>
        <time>2021-12-31T09:27:51Z</time>
      </trkpt>
      <trkpt lat="42.87027" lon="0.25967">
        <ele>2090</ele>
        <time>2021-12-31T09:28:57Z</time>
      </trkpt>
      <trkpt lat="42.87054" lon="0.2595">
        <ele>2094</ele>
        <time>2021-12-31T09:30:01Z</time>
      </trkpt>
      <trkpt lat="42.87075" lon="0.25949">
        <ele>2108</ele>
        <time>2021-12-31T09:31:14Z</time>
      </trkpt>
      <trkpt lat="42.87076" lon="0.25929">
        <ele>2112</ele>
        <time>2021-12-31T09:31:32Z</time>
      </trkpt>
      <trkpt lat="42.8709" lon="0.25928">
        <ele>2115</ele>
        <time>2021-12-31T09:32:04Z</time>
      </trkpt>
      <trkpt lat="42.87105" lon="0.25931">
        <ele>2120</ele>
        <time>2021-12-31T09:32:54Z</time>
      </trkpt>
      <trkpt lat="42.8712" lon="0.25933">
        <ele>2123</ele>
        <time>2021-12-31T09:33:31Z</time>
      </trkpt>
      <trkpt lat="42.87134" lon="0.25938">
        <ele>2129</ele>
        <time>2021-12-31T09:33:55Z</time>
      </trkpt>
      <trkpt lat="42.87147" lon="0.25946">
        <ele>2134</ele>
        <time>2021-12-31T09:34:26Z</time>
      </trkpt>
      <trkpt lat="42.87158" lon="0.2596">
        <ele>2145</ele>
        <time>2021-12-31T09:35:22Z</time>
      </trkpt>
      <trkpt lat="42.87168" lon="0.25974">
        <ele>2152</ele>
        <time>2021-12-31T09:36:15Z</time>
      </trkpt>
      <trkpt lat="42.87172" lon="0.25993">
        <ele>2155</ele>
        <time>2021-12-31T09:36:39Z</time>
      </trkpt>
      <trkpt lat="42.87172" lon="0.26013">
        <ele>2164</ele>
        <time>2021-12-31T09:37:15Z</time>
      </trkpt>
      <trkpt lat="42.87164" lon="0.26029">
        <ele>2168</ele>
        <time>2021-12-31T09:45:39Z</time>
      </trkpt>
      <trkpt lat="42.87159" lon="0.26048">
        <ele>2172</ele>
        <time>2021-12-31T09:46:29Z</time>
      </trkpt>
      <trkpt lat="42.87148" lon="0.2606">
        <ele>2172</ele>
        <time>2021-12-31T09:47:00Z</time>
      </trkpt>
      <trkpt lat="42.87138" lon="0.26076">
        <ele>2179</ele>
        <time>2021-12-31T09:49:10Z</time>
      </trkpt>
      <trkpt lat="42.87126" lon="0.26086">
        <ele>2180</ele>
        <time>2021-12-31T09:49:42Z</time>
      </trkpt>
      <trkpt lat="42.87129" lon="0.26106">
        <ele>2189</ele>
        <time>2021-12-31T09:50:38Z</time>
      </trkpt>
      <trkpt lat="42.87138" lon="0.2613">
        <ele>2199</ele>
        <time>2021-12-31T09:52:23Z</time>
      </trkpt>
      <trkpt lat="42.8715" lon="0.26143">
        <ele>2206</ele>
        <time>2021-12-31T09:53:42Z</time>
      </trkpt>
      <trkpt lat="42.87154" lon="0.26162">
        <ele>2208</ele>
        <time>2021-12-31T09:54:25Z</time>
      </trkpt>
      <trkpt lat="42.8715" lon="0.26181">
        <ele>2220</ele>
        <time>2021-12-31T09:55:25Z</time>
      </trkpt>
      <trkpt lat="42.87139" lon="0.26194">
        <ele>2223</ele>
        <time>2021-12-31T09:56:05Z</time>
      </trkpt>
      <trkpt lat="42.87149" lon="0.26208">
        <ele>2236</ele>
        <time>2021-12-31T09:57:31Z</time>
      </trkpt>
      <trkpt lat="42.87163" lon="0.26218">
        <ele>2241</ele>
        <time>2021-12-31T09:58:28Z</time>
      </trkpt>
      <trkpt lat="42.87174" lon="0.2623">
        <ele>2256</ele>
        <time>2021-12-31T09:59:17Z</time>
      </trkpt>
      <trkpt lat="42.87185" lon="0.26243">
        <ele>2262</ele>
        <time>2021-12-31T10:00:20Z</time>
      </trkpt>
      <trkpt lat="42.87189" lon="0.26262">
        <ele>2276</ele>
        <time>2021-12-31T10:01:03Z</time>
      </trkpt>
      <trkpt lat="42.87191" lon="0.26281">
        <ele>2286</ele>
        <time>2021-12-31T10:03:40Z</time>
      </trkpt>
      <trkpt lat="42.87192" lon="0.26285">
        <ele>2289</ele>
        <time>2021-12-31T10:05:10Z</time>
      </trkpt>
      <trkpt lat="42.87195" lon="0.26288">
        <ele>2290</ele>
        <time>2021-12-31T10:05:13Z</time>
      </trkpt>
      <trkpt lat="42.87197" lon="0.26291">
        <ele>2291</ele>
        <time>2021-12-31T10:05:24Z</time>
      </trkpt>
      <trkpt lat="42.872" lon="0.26294">
        <ele>2291</ele>
        <time>2021-12-31T10:05:30Z</time>
      </trkpt>
      <trkpt lat="42.87202" lon="0.26298">
        <ele>2292</ele>
        <time>2021-12-31T10:05:36Z</time>
      </trkpt>
      <trkpt lat="42.87204" lon="0.26303">
        <ele>2292</ele>
        <time>2021-12-31T10:05:44Z</time>
      </trkpt>
      <trkpt lat="42.87213" lon="0.26317">
        <ele>2296</ele>
        <time>2021-12-31T10:06:05Z</time>
      </trkpt>
      <trkpt lat="42.87216" lon="0.2632">
        <ele>2297</ele>
        <time>2021-12-31T10:06:10Z</time>
      </trkpt>
      <trkpt lat="42.87221" lon="0.26327">
        <ele>2299</ele>
        <time>2021-12-31T10:06:26Z</time>
      </trkpt>
      <trkpt lat="42.87225" lon="0.2634">
        <ele>2301</ele>
        <time>2021-12-31T10:06:42Z</time>
      </trkpt>
      <trkpt lat="42.87226" lon="0.26343">
        <ele>2302</ele>
        <time>2021-12-31T10:06:47Z</time>
      </trkpt>
      <trkpt lat="42.87226" lon="0.26347">
        <ele>2302</ele>
        <time>2021-12-31T10:06:50Z</time>
      </trkpt>
      <trkpt lat="42.87227" lon="0.26351">
        <ele>2303</ele>
        <time>2021-12-31T10:06:55Z</time>
      </trkpt>
      <trkpt lat="42.87225" lon="0.26359">
        <ele>2305</ele>
        <time>2021-12-31T10:07:07Z</time>
      </trkpt>
      <trkpt lat="42.87228" lon="0.26375">
        <ele>2308</ele>
        <time>2021-12-31T10:07:26Z</time>
      </trkpt>
      <trkpt lat="42.87227" lon="0.26379">
        <ele>2309</ele>
        <time>2021-12-31T10:07:35Z</time>
      </trkpt>
      <trkpt lat="42.87227" lon="0.26383">
        <ele>2311</ele>
        <time>2021-12-31T10:07:43Z</time>
      </trkpt>
      <trkpt lat="42.87228" lon="0.26387">
        <ele>2311</ele>
        <time>2021-12-31T10:07:48Z</time>
      </trkpt>
      <trkpt lat="42.87231" lon="0.26395">
        <ele>2313</ele>
        <time>2021-12-31T10:08:00Z</time>
      </trkpt>
      <trkpt lat="42.87233" lon="0.26403">
        <ele>2314</ele>
        <time>2021-12-31T10:08:11Z</time>
      </trkpt>
      <trkpt lat="42.87234" lon="0.26407">
        <ele>2315</ele>
        <time>2021-12-31T10:08:20Z</time>
      </trkpt>
      <trkpt lat="42.87233" lon="0.26413">
        <ele>2315</ele>
        <time>2021-12-31T10:08:26Z</time>
      </trkpt>
      <trkpt lat="42.87234" lon="0.26417">
        <ele>2316</ele>
        <time>2021-12-31T10:08:30Z</time>
      </trkpt>
      <trkpt lat="42.87233" lon="0.26421">
        <ele>2317</ele>
        <time>2021-12-31T10:08:37Z</time>
      </trkpt>
      <trkpt lat="42.87233" lon="0.26425">
        <ele>2318</ele>
        <time>2021-12-31T10:08:44Z</time>
      </trkpt>
      <trkpt lat="42.87231" lon="0.26428">
        <ele>2321</ele>
        <time>2021-12-31T10:08:52Z</time>
      </trkpt>
      <trkpt lat="42.87231" lon="0.26433">
        <ele>2322</ele>
        <time>2021-12-31T10:08:57Z</time>
      </trkpt>
      <trkpt lat="42.87232" lon="0.26438">
        <ele>2324</ele>
        <time>2021-12-31T10:09:17Z</time>
      </trkpt>
      <trkpt lat="42.87233" lon="0.26442">
        <ele>2325</ele>
        <time>2021-12-31T10:09:23Z</time>
      </trkpt>
      <trkpt lat="42.87233" lon="0.26447">
        <ele>2326</ele>
        <time>2021-12-31T10:09:30Z</time>
      </trkpt>
      <trkpt lat="42.87232" lon="0.2645">
        <ele>2327</ele>
        <time>2021-12-31T10:09:34Z</time>
      </trkpt>
      <trkpt lat="42.87233" lon="0.26456">
        <ele>2328</ele>
        <time>2021-12-31T10:09:40Z</time>
      </trkpt>
      <trkpt lat="42.87234" lon="0.26461">
        <ele>2330</ele>
        <time>2021-12-31T10:09:51Z</time>
      </trkpt>
      <trkpt lat="42.8724" lon="0.26458">
        <ele>2333</ele>
        <time>2021-12-31T10:10:05Z</time>
      </trkpt>
      <trkpt lat="42.87245" lon="0.26456">
        <ele>2335</ele>
        <time>2021-12-31T10:10:16Z</time>
      </trkpt>
      <trkpt lat="42.87247" lon="0.26453">
        <ele>2335</ele>
        <time>2021-12-31T10:10:26Z</time>
      </trkpt>
      <trkpt lat="42.87253" lon="0.26452">
        <ele>2337</ele>
        <time>2021-12-31T10:10:36Z</time>
      </trkpt>
      <trkpt lat="42.87256" lon="0.26452">
        <ele>2338</ele>
        <time>2021-12-31T10:10:43Z</time>
      </trkpt>
      <trkpt lat="42.87259" lon="0.2645">
        <ele>2338</ele>
        <time>2021-12-31T10:10:49Z</time>
      </trkpt>
      <trkpt lat="42.87262" lon="0.26443">
        <ele>2340</ele>
        <time>2021-12-31T10:11:02Z</time>
      </trkpt>
      <trkpt lat="42.87264" lon="0.26448">
        <ele>2340</ele>
        <time>2021-12-31T10:11:11Z</time>
      </trkpt>
      <trkpt lat="42.87266" lon="0.26482">
        <ele>2342</ele>
        <time>2021-12-31T10:11:58Z</time>
      </trkpt>
      <trkpt lat="42.8729" lon="0.26459">
        <ele>2347</ele>
        <time>2021-12-31T10:13:06Z</time>
      </trkpt>
      <trkpt lat="42.87318" lon="0.26462">
        <ele>2367</ele>
        <time>2021-12-31T10:15:10Z</time>
      </trkpt>
      <trkpt lat="42.87322" lon="0.26501">
        <ele>2372</ele>
        <time>2021-12-31T10:16:02Z</time>
      </trkpt>
      <trkpt lat="42.87335" lon="0.2651">
        <ele>2390</ele>
        <time>2021-12-31T10:18:19Z</time>
      </trkpt>
      <trkpt lat="42.87331" lon="0.2653">
        <ele>2394</ele>
        <time>2021-12-31T10:19:08Z</time>
      </trkpt>
      <trkpt lat="42.87335" lon="0.26569">
        <ele>2400</ele>
        <time>2021-12-31T10:21:45Z</time>
      </trkpt>
      <trkpt lat="42.87348" lon="0.26604">
        <ele>2428</ele>
        <time>2021-12-31T10:24:02Z</time>
      </trkpt>
      <trkpt lat="42.87375" lon="0.26619">
        <ele>2435</ele>
        <time>2021-12-31T10:27:11Z</time>
      </trkpt>
      <trkpt lat="42.87404" lon="0.26628">
        <ele>2464</ele>
        <time>2021-12-31T10:29:50Z</time>
      </trkpt>
      <trkpt lat="42.87418" lon="0.26611">
        <ele>2469</ele>
        <time>2021-12-31T10:30:32Z</time>
      </trkpt>
      <trkpt lat="42.87426" lon="0.26594">
        <ele>2479</ele>
        <time>2021-12-31T10:32:13Z</time>
      </trkpt>
      <trkpt lat="42.8743" lon="0.26575">
        <ele>2482</ele>
        <time>2021-12-31T10:33:46Z</time>
      </trkpt>
      <trkpt lat="42.87434" lon="0.26555">
        <ele>2490</ele>
        <time>2021-12-31T10:34:27Z</time>
      </trkpt>
      <trkpt lat="42.8744" lon="0.26537">
        <ele>2492</ele>
        <time>2021-12-31T10:35:00Z</time>
      </trkpt>
      <trkpt lat="42.87446" lon="0.26518">
        <ele>2500</ele>
        <time>2021-12-31T10:35:43Z</time>
      </trkpt>
      <trkpt lat="42.87451" lon="0.26499">
        <ele>2502</ele>
        <time>2021-12-31T10:36:13Z</time>
      </trkpt>
      <trkpt lat="42.87458" lon="0.26481">
        <ele>2507</ele>
        <time>2021-12-31T10:36:50Z</time>
      </trkpt>
      <trkpt lat="42.87462" lon="0.26461">
        <ele>2508</ele>
        <time>2021-12-31T10:37:18Z</time>
      </trkpt>
      <trkpt lat="42.87475" lon="0.26472">
        <ele>2515</ele>
        <time>2021-12-31T10:38:52Z</time>
      </trkpt>
      <trkpt lat="42.8748" lon="0.2649">
        <ele>2516</ele>
        <time>2021-12-31T10:39:23Z</time>
      </trkpt>
      <trkpt lat="42.87485" lon="0.2651">
        <ele>2525</ele>
        <time>2021-12-31T10:39:47Z</time>
      </trkpt>
      <trkpt lat="42.875" lon="0.26544">
        <ele>2531</ele>
        <time>2021-12-31T10:41:54Z</time>
      </trkpt>
      <trkpt lat="42.87523" lon="0.26566">
        <ele>2552</ele>
        <time>2021-12-31T10:44:56Z</time>
      </trkpt>
      <trkpt lat="42.87545" lon="0.26539">
        <ele>2557</ele>
        <time>2021-12-31T10:46:28Z</time>
      </trkpt>
      <trkpt lat="42.87573" lon="0.26535">
        <ele>2584</ele>
        <time>2021-12-31T10:49:22Z</time>
      </trkpt>
      <trkpt lat="42.87591" lon="0.26567">
        <ele>2593</ele>
        <time>2021-12-31T10:52:26Z</time>
      </trkpt>
      <trkpt lat="42.87586" lon="0.26606">
        <ele>2610</ele>
        <time>2021-12-31T10:53:18Z</time>
      </trkpt>
      <trkpt lat="42.87583" lon="0.26645">
        <ele>2615</ele>
        <time>2021-12-31T10:54:12Z</time>
      </trkpt>
      <trkpt lat="42.87576" lon="0.26684">
        <ele>2626</ele>
        <time>2021-12-31T10:55:10Z</time>
      </trkpt>
      <trkpt lat="42.87589" lon="0.26719">
        <ele>2630</ele>
        <time>2021-12-31T10:56:46Z</time>
      </trkpt>
      <trkpt lat="42.87589" lon="0.26754">
        <ele>2643</ele>
        <time>2021-12-31T10:57:37Z</time>
      </trkpt>
      <trkpt lat="42.87591" lon="0.26774">
        <ele>2645</ele>
        <time>2021-12-31T10:58:10Z</time>
      </trkpt>
      <trkpt lat="42.87591" lon="0.26794">
        <ele>2651</ele>
        <time>2021-12-31T10:58:37Z</time>
      </trkpt>
      <trkpt lat="42.87587" lon="0.26813">
        <ele>2653</ele>
        <time>2021-12-31T10:59:16Z</time>
      </trkpt>
      <trkpt lat="42.8759" lon="0.26833">
        <ele>2659</ele>
        <time>2021-12-31T11:00:21Z</time>
      </trkpt>
      <trkpt lat="42.87591" lon="0.26843">
        <ele>2663</ele>
        <time>2021-12-31T11:00:33Z</time>
      </trkpt>
      <trkpt lat="42.87591" lon="0.26849">
        <ele>2666</ele>
        <time>2021-12-31T11:00:41Z</time>
      </trkpt>
      <trkpt lat="42.87589" lon="0.26851">
        <ele>2669</ele>
        <time>2021-12-31T11:01:13Z</time>
      </trkpt>
      <trkpt lat="42.87585" lon="0.26861">
        <ele>2671</ele>
        <time>2021-12-31T11:01:25Z</time>
      </trkpt>
      <trkpt lat="42.87584" lon="0.26866">
        <ele>2672</ele>
        <time>2021-12-31T11:01:33Z</time>
      </trkpt>
      <trkpt lat="42.87584" lon="0.26871">
        <ele>2673</ele>
        <time>2021-12-31T11:01:38Z</time>
      </trkpt>
      <trkpt lat="42.87582" lon="0.26887">
        <ele>2676</ele>
        <time>2021-12-31T11:02:24Z</time>
      </trkpt>
      <trkpt lat="42.87582" lon="0.26881">
        <ele>2677</ele>
        <time>2021-12-31T11:02:44Z</time>
      </trkpt>
      <trkpt lat="42.87577" lon="0.269">
        <ele>2680</ele>
        <time>2021-12-31T11:07:25Z</time>
      </trkpt>
      <trkpt lat="42.8759" lon="0.26909">
        <ele>2688</ele>
        <time>2021-12-31T11:09:14Z</time>
      </trkpt>
      <trkpt lat="42.87598" lon="0.26908">
        <ele>2691</ele>
        <time>2021-12-31T11:09:33Z</time>
      </trkpt>
      <trkpt lat="42.87599" lon="0.26912">
        <ele>2692</ele>
        <time>2021-12-31T11:09:41Z</time>
      </trkpt>
      <trkpt lat="42.87596" lon="0.26916">
        <ele>2693</ele>
        <time>2021-12-31T11:09:48Z</time>
      </trkpt>
      <trkpt lat="42.87592" lon="0.26929">
        <ele>2698</ele>
        <time>2021-12-31T11:10:13Z</time>
      </trkpt>
      <trkpt lat="42.87592" lon="0.26933">
        <ele>2699</ele>
        <time>2021-12-31T11:10:20Z</time>
      </trkpt>
      <trkpt lat="42.87592" lon="0.26937">
        <ele>2701</ele>
        <time>2021-12-31T11:10:30Z</time>
      </trkpt>
      <trkpt lat="42.87592" lon="0.26941">
        <ele>2702</ele>
        <time>2021-12-31T11:10:42Z</time>
      </trkpt>
      <trkpt lat="42.87591" lon="0.26945">
        <ele>2704</ele>
        <time>2021-12-31T11:10:48Z</time>
      </trkpt>
      <trkpt lat="42.8759" lon="0.26949">
        <ele>2705</ele>
        <time>2021-12-31T11:10:54Z</time>
      </trkpt>
      <trkpt lat="42.87587" lon="0.26952">
        <ele>2706</ele>
        <time>2021-12-31T11:11:05Z</time>
      </trkpt>
      <trkpt lat="42.87586" lon="0.26956">
        <ele>2708</ele>
        <time>2021-12-31T11:11:18Z</time>
      </trkpt>
      <trkpt lat="42.87585" lon="0.2696">
        <ele>2709</ele>
        <time>2021-12-31T11:11:28Z</time>
      </trkpt>
      <trkpt lat="42.87588" lon="0.26962">
        <ele>2709</ele>
        <time>2021-12-31T11:11:37Z</time>
      </trkpt>
      <trkpt lat="42.87591" lon="0.26961">
        <ele>2712</ele>
        <time>2021-12-31T11:11:45Z</time>
      </trkpt>
      <trkpt lat="42.87593" lon="0.26964">
        <ele>2713</ele>
        <time>2021-12-31T11:11:59Z</time>
      </trkpt>
      <trkpt lat="42.87594" lon="0.26967">
        <ele>2715</ele>
        <time>2021-12-31T11:12:13Z</time>
      </trkpt>
      <trkpt lat="42.87593" lon="0.26971">
        <ele>2716</ele>
        <time>2021-12-31T11:12:18Z</time>
      </trkpt>
      <trkpt lat="42.87592" lon="0.26979">
        <ele>2718</ele>
        <time>2021-12-31T11:12:36Z</time>
      </trkpt>
      <trkpt lat="42.8759" lon="0.26981">
        <ele>2719</ele>
        <time>2021-12-31T11:12:44Z</time>
      </trkpt>
      <trkpt lat="42.87588" lon="0.26985">
        <ele>2720</ele>
        <time>2021-12-31T11:12:57Z</time>
      </trkpt>
      <trkpt lat="42.87587" lon="0.26989">
        <ele>2722</ele>
        <time>2021-12-31T11:13:12Z</time>
      </trkpt>
      <trkpt lat="42.87586" lon="0.26992">
        <ele>2722</ele>
        <time>2021-12-31T11:13:18Z</time>
      </trkpt>
      <trkpt lat="42.87588" lon="0.26995">
        <ele>2724</ele>
        <time>2021-12-31T11:13:30Z</time>
      </trkpt>
      <trkpt lat="42.87587" lon="0.26999">
        <ele>2725</ele>
        <time>2021-12-31T11:13:42Z</time>
      </trkpt>
      <trkpt lat="42.87587" lon="0.27004">
        <ele>2727</ele>
        <time>2021-12-31T11:13:53Z</time>
      </trkpt>
      <trkpt lat="42.87588" lon="0.27012">
        <ele>2731</ele>
        <time>2021-12-31T11:14:14Z</time>
      </trkpt>
      <trkpt lat="42.87587" lon="0.27016">
        <ele>2732</ele>
        <time>2021-12-31T11:14:21Z</time>
      </trkpt>
      <trkpt lat="42.87589" lon="0.27019">
        <ele>2734</ele>
        <time>2021-12-31T11:14:37Z</time>
      </trkpt>
      <trkpt lat="42.87591" lon="0.27022">
        <ele>2735</ele>
        <time>2021-12-31T11:14:52Z</time>
      </trkpt>
      <trkpt lat="42.87591" lon="0.27026">
        <ele>2737</ele>
        <time>2021-12-31T11:15:10Z</time>
      </trkpt>
      <trkpt lat="42.87593" lon="0.27029">
        <ele>2738</ele>
        <time>2021-12-31T11:15:29Z</time>
      </trkpt>
      <trkpt lat="42.87591" lon="0.27032">
        <ele>2738</ele>
        <time>2021-12-31T11:15:35Z</time>
      </trkpt>
      <trkpt lat="42.87589" lon="0.2704">
        <ele>2741</ele>
        <time>2021-12-31T11:15:47Z</time>
      </trkpt>
      <trkpt lat="42.87589" lon="0.27044">
        <ele>2742</ele>
        <time>2021-12-31T11:15:53Z</time>
      </trkpt>
      <trkpt lat="42.87587" lon="0.27047">
        <ele>2744</ele>
        <time>2021-12-31T11:16:03Z</time>
      </trkpt>
      <trkpt lat="42.87587" lon="0.27052">
        <ele>2746</ele>
        <time>2021-12-31T11:16:13Z</time>
      </trkpt>
      <trkpt lat="42.87585" lon="0.27055">
        <ele>2747</ele>
        <time>2021-12-31T11:16:18Z</time>
      </trkpt>
      <trkpt lat="42.87584" lon="0.27059">
        <ele>2748</ele>
        <time>2021-12-31T11:16:26Z</time>
      </trkpt>
      <trkpt lat="42.87584" lon="0.27063">
        <ele>2750</ele>
        <time>2021-12-31T11:16:33Z</time>
      </trkpt>
      <trkpt lat="42.87583" lon="0.27072">
        <ele>2751</ele>
        <time>2021-12-31T11:16:49Z</time>
      </trkpt>
      <trkpt lat="42.87583" lon="0.27079">
        <ele>2753</ele>
        <time>2021-12-31T11:17:05Z</time>
      </trkpt>
      <trkpt lat="42.87584" lon="0.27083">
        <ele>2755</ele>
        <time>2021-12-31T11:17:18Z</time>
      </trkpt>
      <trkpt lat="42.87583" lon="0.27086">
        <ele>2756</ele>
        <time>2021-12-31T11:17:28Z</time>
      </trkpt>
      <trkpt lat="42.8758" lon="0.27094">
        <ele>2760</ele>
        <time>2021-12-31T11:18:03Z</time>
      </trkpt>
      <trkpt lat="42.87578" lon="0.2711">
        <ele>2766</ele>
        <time>2021-12-31T11:18:34Z</time>
      </trkpt>
      <trkpt lat="42.87579" lon="0.27114">
        <ele>2767</ele>
        <time>2021-12-31T11:18:41Z</time>
      </trkpt>
      <trkpt lat="42.87582" lon="0.27115">
        <ele>2769</ele>
        <time>2021-12-31T11:18:48Z</time>
      </trkpt>
      <trkpt lat="42.87587" lon="0.27118">
        <ele>2771</ele>
        <time>2021-12-31T11:19:07Z</time>
      </trkpt>
      <trkpt lat="42.87588" lon="0.27122">
        <ele>2771</ele>
        <time>2021-12-31T11:19:13Z</time>
      </trkpt>
      <trkpt lat="42.87587" lon="0.27126">
        <ele>2773</ele>
        <time>2021-12-31T11:19:22Z</time>
      </trkpt>
      <trkpt lat="42.87589" lon="0.27129">
        <ele>2773</ele>
        <time>2021-12-31T11:19:27Z</time>
      </trkpt>
      <trkpt lat="42.87595" lon="0.2713">
        <ele>2776</ele>
        <time>2021-12-31T11:19:45Z</time>
      </trkpt>
      <trkpt lat="42.87594" lon="0.27133">
        <ele>2778</ele>
        <time>2021-12-31T11:20:07Z</time>
      </trkpt>
      <trkpt lat="42.87593" lon="0.27136">
        <ele>2780</ele>
        <time>2021-12-31T11:20:15Z</time>
      </trkpt>
      <trkpt lat="42.87595" lon="0.27141">
        <ele>2782</ele>
        <time>2021-12-31T11:20:22Z</time>
      </trkpt>
      <trkpt lat="42.8761" lon="0.27142">
        <ele>2787</ele>
        <time>2021-12-31T11:20:54Z</time>
      </trkpt>
      <trkpt lat="42.87609" lon="0.27147">
        <ele>2787</ele>
        <time>2021-12-31T11:21:08Z</time>
      </trkpt>
      <trkpt lat="42.87603" lon="0.27152">
        <ele>2789</ele>
        <time>2021-12-31T11:21:21Z</time>
      </trkpt>
      <trkpt lat="42.876" lon="0.27156">
        <ele>2790</ele>
        <time>2021-12-31T11:21:27Z</time>
      </trkpt>
      <trkpt lat="42.87598" lon="0.27159">
        <ele>2791</ele>
        <time>2021-12-31T11:21:35Z</time>
      </trkpt>
      <trkpt lat="42.87597" lon="0.27163">
        <ele>2792</ele>
        <time>2021-12-31T11:21:40Z</time>
      </trkpt>
      <trkpt lat="42.87596" lon="0.27173">
        <ele>2794</ele>
        <time>2021-12-31T11:21:54Z</time>
      </trkpt>
      <trkpt lat="42.87594" lon="0.27175">
        <ele>2795</ele>
        <time>2021-12-31T11:22:00Z</time>
      </trkpt>
      <trkpt lat="42.87591" lon="0.27176">
        <ele>2796</ele>
        <time>2021-12-31T11:22:05Z</time>
      </trkpt>
      <trkpt lat="42.87589" lon="0.27178">
        <ele>2797</ele>
        <time>2021-12-31T11:22:10Z</time>
      </trkpt>
      <trkpt lat="42.87587" lon="0.27181">
        <ele>2798</ele>
        <time>2021-12-31T11:22:48Z</time>
      </trkpt>
      <trkpt lat="42.87583" lon="0.27189">
        <ele>2800</ele>
        <time>2021-12-31T11:23:00Z</time>
      </trkpt>
      <trkpt lat="42.8758" lon="0.27191">
        <ele>2800</ele>
        <time>2021-12-31T11:23:07Z</time>
      </trkpt>
      <trkpt lat="42.87579" lon="0.27196">
        <ele>2801</ele>
        <time>2021-12-31T11:23:13Z</time>
      </trkpt>
      <trkpt lat="42.87576" lon="0.27197">
        <ele>2802</ele>
        <time>2021-12-31T11:23:19Z</time>
      </trkpt>
      <trkpt lat="42.87577" lon="0.272">
        <ele>2803</ele>
        <time>2021-12-31T11:23:28Z</time>
      </trkpt>
      <trkpt lat="42.8758" lon="0.27203">
        <ele>2804</ele>
        <time>2021-12-31T11:23:36Z</time>
      </trkpt>
      <trkpt lat="42.87582" lon="0.27206">
        <ele>2805</ele>
        <time>2021-12-31T11:23:52Z</time>
      </trkpt>
      <trkpt lat="42.87584" lon="0.27208">
        <ele>2806</ele>
        <time>2021-12-31T11:24:01Z</time>
      </trkpt>
      <trkpt lat="42.87587" lon="0.27209">
        <ele>2807</ele>
        <time>2021-12-31T11:24:08Z</time>
      </trkpt>
      <trkpt lat="42.87587" lon="0.27214">
        <ele>2808</ele>
        <time>2021-12-31T11:24:22Z</time>
      </trkpt>
      <trkpt lat="42.87589" lon="0.27215">
        <ele>2810</ele>
        <time>2021-12-31T11:24:33Z</time>
      </trkpt>
      <trkpt lat="42.8759" lon="0.27218">
        <ele>2810</ele>
        <time>2021-12-31T11:24:40Z</time>
      </trkpt>
      <trkpt lat="42.87593" lon="0.2722">
        <ele>2812</ele>
        <time>2021-12-31T11:24:49Z</time>
      </trkpt>
      <trkpt lat="42.87593" lon="0.27224">
        <ele>2813</ele>
        <time>2021-12-31T11:25:05Z</time>
      </trkpt>
      <trkpt lat="42.87591" lon="0.27227">
        <ele>2815</ele>
        <time>2021-12-31T11:25:13Z</time>
      </trkpt>
      <trkpt lat="42.87589" lon="0.27235">
        <ele>2819</ele>
        <time>2021-12-31T11:25:31Z</time>
      </trkpt>
      <trkpt lat="42.87589" lon="0.27238">
        <ele>2821</ele>
        <time>2021-12-31T11:25:52Z</time>
      </trkpt>
      <trkpt lat="42.87589" lon="0.27244">
        <ele>2824</ele>
        <time>2021-12-31T11:26:00Z</time>
      </trkpt>
      <trkpt lat="42.87591" lon="0.27251">
        <ele>2828</ele>
        <time>2021-12-31T11:26:27Z</time>
      </trkpt>
      <trkpt lat="42.87593" lon="0.27255">
        <ele>2829</ele>
        <time>2021-12-31T11:26:33Z</time>
      </trkpt>
      <trkpt lat="42.87594" lon="0.27263">
        <ele>2834</ele>
        <time>2021-12-31T11:32:22Z</time>
      </trkpt>
      <trkpt lat="42.87596" lon="0.27246">
        <ele>2834</ele>
        <time>2021-12-31T11:54:13Z</time>
      </trkpt>
      <trkpt lat="42.87596" lon="0.27247">
        <ele>2834</ele>
        <time>2021-12-31T11:54:16Z</time>
      </trkpt>
      <trkpt lat="42.87593" lon="0.27245">
        <ele>2834</ele>
        <time>2021-12-31T11:55:18Z</time>
      </trkpt>
      <trkpt lat="42.8759" lon="0.27248">
        <ele>2834</ele>
        <time>2021-12-31T11:58:56Z</time>
      </trkpt>
      <trkpt lat="42.87588" lon="0.27252">
        <ele>2835</ele>
        <time>2021-12-31T11:59:01Z</time>
      </trkpt>
      <trkpt lat="42.87586" lon="0.27249">
        <ele>2835</ele>
        <time>2021-12-31T11:59:10Z</time>
      </trkpt>
      <trkpt lat="42.87583" lon="0.27248">
        <ele>2835</ele>
        <time>2021-12-31T11:59:27Z</time>
      </trkpt>
      <trkpt lat="42.87581" lon="0.27243">
        <ele>2834</ele>
        <time>2021-12-31T11:59:30Z</time>
      </trkpt>
      <trkpt lat="42.87579" lon="0.27242">
        <ele>2834</ele>
        <time>2021-12-31T11:59:32Z</time>
      </trkpt>
      <trkpt lat="42.87575" lon="0.27239">
        <ele>2834</ele>
        <time>2021-12-31T11:59:34Z</time>
      </trkpt>
      <trkpt lat="42.87571" lon="0.27239">
        <ele>2833</ele>
        <time>2021-12-31T11:59:35Z</time>
      </trkpt>
      <trkpt lat="42.87566" lon="0.27231">
        <ele>2833</ele>
        <time>2021-12-31T11:59:37Z</time>
      </trkpt>
      <trkpt lat="42.87564" lon="0.27227">
        <ele>2832</ele>
        <time>2021-12-31T11:59:38Z</time>
      </trkpt>
      <trkpt lat="42.87566" lon="0.27222">
        <ele>2831</ele>
        <time>2021-12-31T11:59:39Z</time>
      </trkpt>
      <trkpt lat="42.87568" lon="0.27217">
        <ele>2829</ele>
        <time>2021-12-31T11:59:40Z</time>
      </trkpt>
      <trkpt lat="42.87566" lon="0.2721">
        <ele>2829</ele>
        <time>2021-12-31T11:59:42Z</time>
      </trkpt>
      <trkpt lat="42.8757" lon="0.27205">
        <ele>2828</ele>
        <time>2021-12-31T11:59:44Z</time>
      </trkpt>
      <trkpt lat="42.87573" lon="0.27201">
        <ele>2828</ele>
        <time>2021-12-31T11:59:45Z</time>
      </trkpt>
      <trkpt lat="42.87572" lon="0.27192">
        <ele>2827</ele>
        <time>2021-12-31T11:59:47Z</time>
      </trkpt>
      <trkpt lat="42.87567" lon="0.2719">
        <ele>2826</ele>
        <time>2021-12-31T12:00:04Z</time>
      </trkpt>
      <trkpt lat="42.87562" lon="0.27188">
        <ele>2823</ele>
        <time>2021-12-31T12:00:14Z</time>
      </trkpt>
      <trkpt lat="42.87562" lon="0.27181">
        <ele>2822</ele>
        <time>2021-12-31T12:00:16Z</time>
      </trkpt>
      <trkpt lat="42.87556" lon="0.27177">
        <ele>2818</ele>
        <time>2021-12-31T12:00:18Z</time>
      </trkpt>
      <trkpt lat="42.87555" lon="0.27171">
        <ele>2815</ele>
        <time>2021-12-31T12:00:19Z</time>
      </trkpt>
      <trkpt lat="42.8755" lon="0.27164">
        <ele>2811</ele>
        <time>2021-12-31T12:00:21Z</time>
      </trkpt>
      <trkpt lat="42.87552" lon="0.27155">
        <ele>2807</ele>
        <time>2021-12-31T12:00:23Z</time>
      </trkpt>
      <trkpt lat="42.87555" lon="0.27148">
        <ele>2804</ele>
        <time>2021-12-31T12:00:24Z</time>
      </trkpt>
      <trkpt lat="42.87555" lon="0.27142">
        <ele>2802</ele>
        <time>2021-12-31T12:00:25Z</time>
      </trkpt>
      <trkpt lat="42.87552" lon="0.27136">
        <ele>2798</ele>
        <time>2021-12-31T12:00:27Z</time>
      </trkpt>
      <trkpt lat="42.87558" lon="0.27121">
        <ele>2791</ele>
        <time>2021-12-31T12:00:30Z</time>
      </trkpt>
      <trkpt lat="42.87559" lon="0.27116">
        <ele>2790</ele>
        <time>2021-12-31T12:00:31Z</time>
      </trkpt>
      <trkpt lat="42.87554" lon="0.27112">
        <ele>2787</ele>
        <time>2021-12-31T12:00:33Z</time>
      </trkpt>
      <trkpt lat="42.87553" lon="0.27103">
        <ele>2787</ele>
        <time>2021-12-31T12:00:35Z</time>
      </trkpt>
      <trkpt lat="42.87549" lon="0.27102">
        <ele>2786</ele>
        <time>2021-12-31T12:00:36Z</time>
      </trkpt>
      <trkpt lat="42.87544" lon="0.27101">
        <ele>2785</ele>
        <time>2021-12-31T12:00:38Z</time>
      </trkpt>
      <trkpt lat="42.87542" lon="0.27095">
        <ele>2784</ele>
        <time>2021-12-31T12:00:40Z</time>
      </trkpt>
      <trkpt lat="42.87538" lon="0.27095">
        <ele>2783</ele>
        <time>2021-12-31T12:00:41Z</time>
      </trkpt>
      <trkpt lat="42.87533" lon="0.27089">
        <ele>2778</ele>
        <time>2021-12-31T12:00:43Z</time>
      </trkpt>
      <trkpt lat="42.87529" lon="0.27087">
        <ele>2777</ele>
        <time>2021-12-31T12:00:44Z</time>
      </trkpt>
      <trkpt lat="42.87529" lon="0.27079">
        <ele>2774</ele>
        <time>2021-12-31T12:00:46Z</time>
      </trkpt>
      <trkpt lat="42.87525" lon="0.27076">
        <ele>2773</ele>
        <time>2021-12-31T12:00:48Z</time>
      </trkpt>
      <trkpt lat="42.87523" lon="0.27068">
        <ele>2771</ele>
        <time>2021-12-31T12:00:50Z</time>
      </trkpt>
      <trkpt lat="42.87523" lon="0.27058">
        <ele>2768</ele>
        <time>2021-12-31T12:01:06Z</time>
      </trkpt>
      <trkpt lat="42.87537" lon="0.2703">
        <ele>2746</ele>
        <time>2021-12-31T12:01:29Z</time>
      </trkpt>
      <trkpt lat="42.87539" lon="0.27026">
        <ele>2742</ele>
        <time>2021-12-31T12:01:30Z</time>
      </trkpt>
      <trkpt lat="42.87537" lon="0.27022">
        <ele>2740</ele>
        <time>2021-12-31T12:01:31Z</time>
      </trkpt>
      <trkpt lat="42.87534" lon="0.27019">
        <ele>2738</ele>
        <time>2021-12-31T12:01:32Z</time>
      </trkpt>
      <trkpt lat="42.87536" lon="0.27014">
        <ele>2734</ele>
        <time>2021-12-31T12:01:33Z</time>
      </trkpt>
      <trkpt lat="42.87537" lon="0.27008">
        <ele>2732</ele>
        <time>2021-12-31T12:01:34Z</time>
      </trkpt>
      <trkpt lat="42.87532" lon="0.27005">
        <ele>2729</ele>
        <time>2021-12-31T12:01:36Z</time>
      </trkpt>
      <trkpt lat="42.87531" lon="0.27">
        <ele>2727</ele>
        <time>2021-12-31T12:01:37Z</time>
      </trkpt>
      <trkpt lat="42.87534" lon="0.26993">
        <ele>2724</ele>
        <time>2021-12-31T12:01:38Z</time>
      </trkpt>
      <trkpt lat="42.87538" lon="0.26987">
        <ele>2723</ele>
        <time>2021-12-31T12:01:39Z</time>
      </trkpt>
      <trkpt lat="42.87537" lon="0.2698">
        <ele>2720</ele>
        <time>2021-12-31T12:01:40Z</time>
      </trkpt>
      <trkpt lat="42.87534" lon="0.26976">
        <ele>2718</ele>
        <time>2021-12-31T12:01:41Z</time>
      </trkpt>
      <trkpt lat="42.87537" lon="0.26962">
        <ele>2714</ele>
        <time>2021-12-31T12:01:43Z</time>
      </trkpt>
      <trkpt lat="42.87541" lon="0.26955">
        <ele>2712</ele>
        <time>2021-12-31T12:01:44Z</time>
      </trkpt>
      <trkpt lat="42.87551" lon="0.26945">
        <ele>2708</ele>
        <time>2021-12-31T12:01:52Z</time>
      </trkpt>
      <trkpt lat="42.87555" lon="0.2694">
        <ele>2706</ele>
        <time>2021-12-31T12:01:54Z</time>
      </trkpt>
      <trkpt lat="42.87557" lon="0.26935">
        <ele>2705</ele>
        <time>2021-12-31T12:01:55Z</time>
      </trkpt>
      <trkpt lat="42.87553" lon="0.26927">
        <ele>2702</ele>
        <time>2021-12-31T12:01:57Z</time>
      </trkpt>
      <trkpt lat="42.87555" lon="0.26921">
        <ele>2699</ele>
        <time>2021-12-31T12:01:58Z</time>
      </trkpt>
      <trkpt lat="42.87558" lon="0.26915">
        <ele>2698</ele>
        <time>2021-12-31T12:01:59Z</time>
      </trkpt>
      <trkpt lat="42.87561" lon="0.26912">
        <ele>2697</ele>
        <time>2021-12-31T12:02:01Z</time>
      </trkpt>
      <trkpt lat="42.87561" lon="0.26908">
        <ele>2696</ele>
        <time>2021-12-31T12:02:13Z</time>
      </trkpt>
      <trkpt lat="42.87556" lon="0.26908">
        <ele>2696</ele>
        <time>2021-12-31T12:02:15Z</time>
      </trkpt>
      <trkpt lat="42.87556" lon="0.26898">
        <ele>2695</ele>
        <time>2021-12-31T12:02:17Z</time>
      </trkpt>
      <trkpt lat="42.87551" lon="0.26893">
        <ele>2692</ele>
        <time>2021-12-31T12:02:19Z</time>
      </trkpt>
      <trkpt lat="42.8755" lon="0.26887">
        <ele>2690</ele>
        <time>2021-12-31T12:02:21Z</time>
      </trkpt>
      <trkpt lat="42.87543" lon="0.26886">
        <ele>2687</ele>
        <time>2021-12-31T12:02:23Z</time>
      </trkpt>
      <trkpt lat="42.87539" lon="0.2688">
        <ele>2684</ele>
        <time>2021-12-31T12:02:25Z</time>
      </trkpt>
      <trkpt lat="42.87536" lon="0.26875">
        <ele>2680</ele>
        <time>2021-12-31T12:02:27Z</time>
      </trkpt>
      <trkpt lat="42.87546" lon="0.26836">
        <ele>2666</ele>
        <time>2021-12-31T12:02:50Z</time>
      </trkpt>
      <trkpt lat="42.87546" lon="0.26832">
        <ele>2666</ele>
        <time>2021-12-31T12:02:51Z</time>
      </trkpt>
      <trkpt lat="42.87543" lon="0.26827">
        <ele>2665</ele>
        <time>2021-12-31T12:02:54Z</time>
      </trkpt>
      <trkpt lat="42.87542" lon="0.26822">
        <ele>2664</ele>
        <time>2021-12-31T12:02:56Z</time>
      </trkpt>
      <trkpt lat="42.87539" lon="0.26819">
        <ele>2663</ele>
        <time>2021-12-31T12:02:57Z</time>
      </trkpt>
      <trkpt lat="42.87541" lon="0.26809">
        <ele>2659</ele>
        <time>2021-12-31T12:02:59Z</time>
      </trkpt>
      <trkpt lat="42.87537" lon="0.26808">
        <ele>2652</ele>
        <time>2021-12-31T12:03:01Z</time>
      </trkpt>
      <trkpt lat="42.87533" lon="0.26808">
        <ele>2650</ele>
        <time>2021-12-31T12:03:02Z</time>
      </trkpt>
      <trkpt lat="42.87527" lon="0.26808">
        <ele>2645</ele>
        <time>2021-12-31T12:03:04Z</time>
      </trkpt>
      <trkpt lat="42.87522" lon="0.26807">
        <ele>2639</ele>
        <time>2021-12-31T12:03:05Z</time>
      </trkpt>
      <trkpt lat="42.87518" lon="0.26804">
        <ele>2636</ele>
        <time>2021-12-31T12:03:06Z</time>
      </trkpt>
      <trkpt lat="42.87513" lon="0.26806">
        <ele>2631</ele>
        <time>2021-12-31T12:03:07Z</time>
      </trkpt>
      <trkpt lat="42.87507" lon="0.26801">
        <ele>2630</ele>
        <time>2021-12-31T12:03:08Z</time>
      </trkpt>
      <trkpt lat="42.87507" lon="0.26795">
        <ele>2626</ele>
        <time>2021-12-31T12:03:09Z</time>
      </trkpt>
      <trkpt lat="42.87507" lon="0.26788">
        <ele>2624</ele>
        <time>2021-12-31T12:03:10Z</time>
      </trkpt>
      <trkpt lat="42.87504" lon="0.26783">
        <ele>2619</ele>
        <time>2021-12-31T12:03:11Z</time>
      </trkpt>
      <trkpt lat="42.87499" lon="0.26781">
        <ele>2618</ele>
        <time>2021-12-31T12:03:12Z</time>
      </trkpt>
      <trkpt lat="42.87494" lon="0.26775">
        <ele>2616</ele>
        <time>2021-12-31T12:03:14Z</time>
      </trkpt>
      <trkpt lat="42.87487" lon="0.26775">
        <ele>2611</ele>
        <time>2021-12-31T12:03:16Z</time>
      </trkpt>
      <trkpt lat="42.87485" lon="0.2677">
        <ele>2608</ele>
        <time>2021-12-31T12:03:17Z</time>
      </trkpt>
      <trkpt lat="42.87479" lon="0.26762">
        <ele>2603</ele>
        <time>2021-12-31T12:03:18Z</time>
      </trkpt>
      <trkpt lat="42.87473" lon="0.26759">
        <ele>2599</ele>
        <time>2021-12-31T12:03:19Z</time>
      </trkpt>
      <trkpt lat="42.8747" lon="0.26752">
        <ele>2594</ele>
        <time>2021-12-31T12:03:20Z</time>
      </trkpt>
      <trkpt lat="42.87471" lon="0.26744">
        <ele>2590</ele>
        <time>2021-12-31T12:03:21Z</time>
      </trkpt>
      <trkpt lat="42.87469" lon="0.26738">
        <ele>2585</ele>
        <time>2021-12-31T12:03:22Z</time>
      </trkpt>
      <trkpt lat="42.87465" lon="0.26737">
        <ele>2582</ele>
        <time>2021-12-31T12:03:23Z</time>
      </trkpt>
      <trkpt lat="42.87462" lon="0.26728">
        <ele>2577</ele>
        <time>2021-12-31T12:03:24Z</time>
      </trkpt>
      <trkpt lat="42.87457" lon="0.26725">
        <ele>2575</ele>
        <time>2021-12-31T12:03:25Z</time>
      </trkpt>
      <trkpt lat="42.87451" lon="0.26728">
        <ele>2569</ele>
        <time>2021-12-31T12:03:26Z</time>
      </trkpt>
      <trkpt lat="42.87446" lon="0.26723">
        <ele>2566</ele>
        <time>2021-12-31T12:03:27Z</time>
      </trkpt>
      <trkpt lat="42.87444" lon="0.26716">
        <ele>2561</ele>
        <time>2021-12-31T12:03:28Z</time>
      </trkpt>
      <trkpt lat="42.87443" lon="0.26707">
        <ele>2560</ele>
        <time>2021-12-31T12:03:29Z</time>
      </trkpt>
      <trkpt lat="42.87441" lon="0.26704">
        <ele>2558</ele>
        <time>2021-12-31T12:03:30Z</time>
      </trkpt>
      <trkpt lat="42.87434" lon="0.26706">
        <ele>2556</ele>
        <time>2021-12-31T12:03:32Z</time>
      </trkpt>
      <trkpt lat="42.87432" lon="0.26709">
        <ele>2552</ele>
        <time>2021-12-31T12:03:41Z</time>
      </trkpt>
      <trkpt lat="42.87425" lon="0.2671">
        <ele>2549</ele>
        <time>2021-12-31T12:03:56Z</time>
      </trkpt>
      <trkpt lat="42.87422" lon="0.26716">
        <ele>2547</ele>
        <time>2021-12-31T12:03:57Z</time>
      </trkpt>
      <trkpt lat="42.87411" lon="0.26729">
        <ele>2543</ele>
        <time>2021-12-31T12:04:01Z</time>
      </trkpt>
      <trkpt lat="42.87407" lon="0.26729">
        <ele>2543</ele>
        <time>2021-12-31T12:04:03Z</time>
      </trkpt>
      <trkpt lat="42.87405" lon="0.26722">
        <ele>2542</ele>
        <time>2021-12-31T12:04:05Z</time>
      </trkpt>
      <trkpt lat="42.87401" lon="0.26724">
        <ele>2541</ele>
        <time>2021-12-31T12:04:09Z</time>
      </trkpt>
      <trkpt lat="42.87399" lon="0.26734">
        <ele>2536</ele>
        <time>2021-12-31T12:04:11Z</time>
      </trkpt>
      <trkpt lat="42.87397" lon="0.26742">
        <ele>2534</ele>
        <time>2021-12-31T12:04:12Z</time>
      </trkpt>
      <trkpt lat="42.87395" lon="0.26747">
        <ele>2532</ele>
        <time>2021-12-31T12:04:13Z</time>
      </trkpt>
      <trkpt lat="42.87391" lon="0.26746">
        <ele>2531</ele>
        <time>2021-12-31T12:04:14Z</time>
      </trkpt>
      <trkpt lat="42.8739" lon="0.2674">
        <ele>2530</ele>
        <time>2021-12-31T12:04:15Z</time>
      </trkpt>
      <trkpt lat="42.87392" lon="0.26735">
        <ele>2526</ele>
        <time>2021-12-31T12:04:16Z</time>
      </trkpt>
      <trkpt lat="42.87388" lon="0.26729">
        <ele>2523</ele>
        <time>2021-12-31T12:04:18Z</time>
      </trkpt>
      <trkpt lat="42.87386" lon="0.26724">
        <ele>2519</ele>
        <time>2021-12-31T12:04:19Z</time>
      </trkpt>
      <trkpt lat="42.87387" lon="0.26718">
        <ele>2517</ele>
        <time>2021-12-31T12:04:20Z</time>
      </trkpt>
      <trkpt lat="42.87386" lon="0.26712">
        <ele>2515</ele>
        <time>2021-12-31T12:04:21Z</time>
      </trkpt>
      <trkpt lat="42.8738" lon="0.26707">
        <ele>2511</ele>
        <time>2021-12-31T12:04:23Z</time>
      </trkpt>
      <trkpt lat="42.87377" lon="0.26702">
        <ele>2510</ele>
        <time>2021-12-31T12:04:24Z</time>
      </trkpt>
      <trkpt lat="42.87373" lon="0.26699">
        <ele>2509</ele>
        <time>2021-12-31T12:04:26Z</time>
      </trkpt>
      <trkpt lat="42.87372" lon="0.26693">
        <ele>2508</ele>
        <time>2021-12-31T12:04:28Z</time>
      </trkpt>
      <trkpt lat="42.87374" lon="0.26685">
        <ele>2508</ele>
        <time>2021-12-31T12:04:30Z</time>
      </trkpt>
      <trkpt lat="42.87374" lon="0.26677">
        <ele>2507</ele>
        <time>2021-12-31T12:04:31Z</time>
      </trkpt>
      <trkpt lat="42.87372" lon="0.26672">
        <ele>2507</ele>
        <time>2021-12-31T12:04:32Z</time>
      </trkpt>
      <trkpt lat="42.8737" lon="0.26665">
        <ele>2506</ele>
        <time>2021-12-31T12:04:33Z</time>
      </trkpt>
      <trkpt lat="42.87371" lon="0.26658">
        <ele>2504</ele>
        <time>2021-12-31T12:04:34Z</time>
      </trkpt>
      <trkpt lat="42.87371" lon="0.2665">
        <ele>2502</ele>
        <time>2021-12-31T12:04:35Z</time>
      </trkpt>
      <trkpt lat="42.87369" lon="0.26645">
        <ele>2499</ele>
        <time>2021-12-31T12:04:36Z</time>
      </trkpt>
      <trkpt lat="42.87363" lon="0.26643">
        <ele>2493</ele>
        <time>2021-12-31T12:04:37Z</time>
      </trkpt>
      <trkpt lat="42.87361" lon="0.26636">
        <ele>2490</ele>
        <time>2021-12-31T12:04:38Z</time>
      </trkpt>
      <trkpt lat="42.87362" lon="0.26629">
        <ele>2486</ele>
        <time>2021-12-31T12:04:39Z</time>
      </trkpt>
      <trkpt lat="42.8736" lon="0.26623">
        <ele>2483</ele>
        <time>2021-12-31T12:04:40Z</time>
      </trkpt>
      <trkpt lat="42.87355" lon="0.26621">
        <ele>2480</ele>
        <time>2021-12-31T12:04:41Z</time>
      </trkpt>
      <trkpt lat="42.8735" lon="0.26616">
        <ele>2478</ele>
        <time>2021-12-31T12:04:42Z</time>
      </trkpt>
      <trkpt lat="42.87344" lon="0.26613">
        <ele>2474</ele>
        <time>2021-12-31T12:04:43Z</time>
      </trkpt>
      <trkpt lat="42.87337" lon="0.26613">
        <ele>2471</ele>
        <time>2021-12-31T12:04:44Z</time>
      </trkpt>
      <trkpt lat="42.87333" lon="0.26612">
        <ele>2469</ele>
        <time>2021-12-31T12:04:45Z</time>
      </trkpt>
      <trkpt lat="42.87333" lon="0.26605">
        <ele>2467</ele>
        <time>2021-12-31T12:04:47Z</time>
      </trkpt>
      <trkpt lat="42.87335" lon="0.26601">
        <ele>2466</ele>
        <time>2021-12-31T12:04:49Z</time>
      </trkpt>
      <trkpt lat="42.87343" lon="0.26576">
        <ele>2463</ele>
        <time>2021-12-31T12:05:16Z</time>
      </trkpt>
      <trkpt lat="42.8733" lon="0.26567">
        <ele>2441</ele>
        <time>2021-12-31T12:05:22Z</time>
      </trkpt>
      <trkpt lat="42.87331" lon="0.26546">
        <ele>2434</ele>
        <time>2021-12-31T12:05:52Z</time>
      </trkpt>
      <trkpt lat="42.87339" lon="0.26526">
        <ele>2434</ele>
        <time>2021-12-31T12:05:55Z</time>
      </trkpt>
      <trkpt lat="42.87334" lon="0.26507">
        <ele>2425</ele>
        <time>2021-12-31T12:06:00Z</time>
      </trkpt>
      <trkpt lat="42.87321" lon="0.26492">
        <ele>2421</ele>
        <time>2021-12-31T12:06:04Z</time>
      </trkpt>
      <trkpt lat="42.87305" lon="0.26484">
        <ele>2411</ele>
        <time>2021-12-31T12:06:07Z</time>
      </trkpt>
      <trkpt lat="42.87291" lon="0.26487">
        <ele>2396</ele>
        <time>2021-12-31T12:10:43Z</time>
      </trkpt>
      <trkpt lat="42.87276" lon="0.26476">
        <ele>2384</ele>
        <time>2021-12-31T12:10:48Z</time>
      </trkpt>
      <trkpt lat="42.87262" lon="0.26467">
        <ele>2379</ele>
        <time>2021-12-31T12:10:51Z</time>
      </trkpt>
      <trkpt lat="42.8725" lon="0.26455">
        <ele>2370</ele>
        <time>2021-12-31T12:10:54Z</time>
      </trkpt>
      <trkpt lat="42.87243" lon="0.26436">
        <ele>2365</ele>
        <time>2021-12-31T12:10:58Z</time>
      </trkpt>
      <trkpt lat="42.8724" lon="0.2641">
        <ele>2354</ele>
        <time>2021-12-31T12:11:02Z</time>
      </trkpt>
      <trkpt lat="42.8723" lon="0.26393">
        <ele>2339</ele>
        <time>2021-12-31T12:11:07Z</time>
      </trkpt>
      <trkpt lat="42.87225" lon="0.26369">
        <ele>2329</ele>
        <time>2021-12-31T12:11:29Z</time>
      </trkpt>
      <trkpt lat="42.87227" lon="0.26343">
        <ele>2323</ele>
        <time>2021-12-31T12:11:32Z</time>
      </trkpt>
      <trkpt lat="42.87215" lon="0.26329">
        <ele>2321</ele>
        <time>2021-12-31T12:11:34Z</time>
      </trkpt>
      <trkpt lat="42.87205" lon="0.26302">
        <ele>2317</ele>
        <time>2021-12-31T12:11:36Z</time>
      </trkpt>
      <trkpt lat="42.87202" lon="0.2628">
        <ele>2315</ele>
        <time>2021-12-31T12:11:38Z</time>
      </trkpt>
      <trkpt lat="42.87202" lon="0.26236">
        <ele>2312</ele>
        <time>2021-12-31T12:11:42Z</time>
      </trkpt>
      <trkpt lat="42.87202" lon="0.26214">
        <ele>2309</ele>
        <time>2021-12-31T12:11:44Z</time>
      </trkpt>
      <trkpt lat="42.87201" lon="0.26191">
        <ele>2308</ele>
        <time>2021-12-31T12:11:47Z</time>
      </trkpt>
      <trkpt lat="42.87185" lon="0.26191">
        <ele>2304</ele>
        <time>2021-12-31T12:11:58Z</time>
      </trkpt>
      <trkpt lat="42.87178" lon="0.26208">
        <ele>2303</ele>
        <time>2021-12-31T12:12:01Z</time>
      </trkpt>
      <trkpt lat="42.8716" lon="0.26208">
        <ele>2295</ele>
        <time>2021-12-31T12:12:06Z</time>
      </trkpt>
      <trkpt lat="42.87142" lon="0.26215">
        <ele>2285</ele>
        <time>2021-12-31T12:12:09Z</time>
      </trkpt>
      <trkpt lat="42.8714" lon="0.26195">
        <ele>2281</ele>
        <time>2021-12-31T12:12:14Z</time>
      </trkpt>
      <trkpt lat="42.8715" lon="0.26176">
        <ele>2275</ele>
        <time>2021-12-31T12:12:35Z</time>
      </trkpt>
      <trkpt lat="42.87149" lon="0.2615">
        <ele>2268</ele>
        <time>2021-12-31T12:12:41Z</time>
      </trkpt>
      <trkpt lat="42.87155" lon="0.26128">
        <ele>2255</ele>
        <time>2021-12-31T12:12:44Z</time>
      </trkpt>
      <trkpt lat="42.87164" lon="0.26111">
        <ele>2248</ele>
        <time>2021-12-31T12:13:37Z</time>
      </trkpt>
      <trkpt lat="42.87163" lon="0.26091">
        <ele>2234</ele>
        <time>2021-12-31T12:13:47Z</time>
      </trkpt>
      <trkpt lat="42.87157" lon="0.26072">
        <ele>2230</ele>
        <time>2021-12-31T12:13:55Z</time>
      </trkpt>
      <trkpt lat="42.87169" lon="0.26059">
        <ele>2222</ele>
        <time>2021-12-31T12:14:01Z</time>
      </trkpt>
      <trkpt lat="42.87165" lon="0.2604">
        <ele>2216</ele>
        <time>2021-12-31T12:14:09Z</time>
      </trkpt>
      <trkpt lat="42.87175" lon="0.26024">
        <ele>2215</ele>
        <time>2021-12-31T12:14:15Z</time>
      </trkpt>
      <trkpt lat="42.87165" lon="0.2598">
        <ele>2188</ele>
        <time>2021-12-31T12:15:37Z</time>
      </trkpt>
      <trkpt lat="42.87136" lon="0.2596">
        <ele>2173</ele>
        <time>2021-12-31T12:15:42Z</time>
      </trkpt>
      <trkpt lat="42.87109" lon="0.25938">
        <ele>2158</ele>
        <time>2021-12-31T12:15:51Z</time>
      </trkpt>
      <trkpt lat="42.87077" lon="0.25955">
        <ele>2149</ele>
        <time>2021-12-31T12:15:58Z</time>
      </trkpt>
      <trkpt lat="42.87045" lon="0.25968">
        <ele>2131</ele>
        <time>2021-12-31T12:16:03Z</time>
      </trkpt>
      <trkpt lat="42.87014" lon="0.25985">
        <ele>2121</ele>
        <time>2021-12-31T12:16:09Z</time>
      </trkpt>
      <trkpt lat="42.86995" lon="0.26018">
        <ele>2098</ele>
        <time>2021-12-31T12:16:24Z</time>
      </trkpt>
      <trkpt lat="42.86982" lon="0.26058">
        <ele>2092</ele>
        <time>2021-12-31T12:16:31Z</time>
      </trkpt>
      <trkpt lat="42.86952" lon="0.26056">
        <ele>2079</ele>
        <time>2021-12-31T12:17:04Z</time>
      </trkpt>
      <trkpt lat="42.86919" lon="0.26065">
        <ele>2074</ele>
        <time>2021-12-31T12:17:10Z</time>
      </trkpt>
      <trkpt lat="42.86894" lon="0.26084">
        <ele>2062</ele>
        <time>2021-12-31T12:17:15Z</time>
      </trkpt>
      <trkpt lat="42.86863" lon="0.26097">
        <ele>2056</ele>
        <time>2021-12-31T12:17:20Z</time>
      </trkpt>
      <trkpt lat="42.8684" lon="0.26123">
        <ele>2039</ele>
        <time>2021-12-31T12:17:29Z</time>
      </trkpt>
      <trkpt lat="42.86809" lon="0.26136">
        <ele>2032</ele>
        <time>2021-12-31T12:17:36Z</time>
      </trkpt>
      <trkpt lat="42.86785" lon="0.26164">
        <ele>2016</ele>
        <time>2021-12-31T12:17:42Z</time>
      </trkpt>
      <trkpt lat="42.86763" lon="0.26192">
        <ele>2010</ele>
        <time>2021-12-31T12:17:48Z</time>
      </trkpt>
      <trkpt lat="42.86734" lon="0.26199">
        <ele>1997</ele>
        <time>2021-12-31T12:17:53Z</time>
      </trkpt>
      <trkpt lat="42.867" lon="0.26197">
        <ele>1991</ele>
        <time>2021-12-31T12:17:58Z</time>
      </trkpt>
      <trkpt lat="42.86668" lon="0.26207">
        <ele>1976</ele>
        <time>2021-12-31T12:18:04Z</time>
      </trkpt>
      <trkpt lat="42.8664" lon="0.26225">
        <ele>1964</ele>
        <time>2021-12-31T12:18:11Z</time>
      </trkpt>
      <trkpt lat="42.8661" lon="0.2621">
        <ele>1955</ele>
        <time>2021-12-31T12:18:18Z</time>
      </trkpt>
      <trkpt lat="42.86583" lon="0.26194">
        <ele>1943</ele>
        <time>2021-12-31T12:19:05Z</time>
      </trkpt>
      <trkpt lat="42.86559" lon="0.26171">
        <ele>1937</ele>
        <time>2021-12-31T12:19:23Z</time>
      </trkpt>
      <trkpt lat="42.8653" lon="0.26163">
        <ele>1925</ele>
        <time>2021-12-31T12:19:33Z</time>
      </trkpt>
      <trkpt lat="42.86505" lon="0.26143">
        <ele>1914</ele>
        <time>2021-12-31T12:19:47Z</time>
      </trkpt>
      <trkpt lat="42.86481" lon="0.26116">
        <ele>1901</ele>
        <time>2021-12-31T12:20:00Z</time>
      </trkpt>
      <trkpt lat="42.86461" lon="0.26088">
        <ele>1890</ele>
        <time>2021-12-31T12:20:35Z</time>
      </trkpt>
      <trkpt lat="42.86432" lon="0.26091">
        <ele>1886</ele>
        <time>2021-12-31T12:21:02Z</time>
      </trkpt>
      <trkpt lat="42.864" lon="0.26094">
        <ele>1855</ele>
        <time>2021-12-31T12:21:10Z</time>
      </trkpt>
      <trkpt lat="42.86373" lon="0.26106">
        <ele>1842</ele>
        <time>2021-12-31T12:21:20Z</time>
      </trkpt>
      <trkpt lat="42.8634" lon="0.2611">
        <ele>1815</ele>
        <time>2021-12-31T12:21:30Z</time>
      </trkpt>
      <trkpt lat="42.8632" lon="0.26143">
        <ele>1809</ele>
        <time>2021-12-31T12:21:37Z</time>
      </trkpt>
      <trkpt lat="42.86297" lon="0.26172">
        <ele>1791</ele>
        <time>2021-12-31T12:21:53Z</time>
      </trkpt>
      <trkpt lat="42.86268" lon="0.26182">
        <ele>1781</ele>
        <time>2021-12-31T12:22:25Z</time>
      </trkpt>
      <trkpt lat="42.8624" lon="0.26178">
        <ele>1768</ele>
        <time>2021-12-31T12:22:37Z</time>
      </trkpt>
      <trkpt lat="42.86211" lon="0.26177">
        <ele>1763</ele>
        <time>2021-12-31T12:22:45Z</time>
      </trkpt>
      <trkpt lat="42.86178" lon="0.2617">
        <ele>1744</ele>
        <time>2021-12-31T12:24:16Z</time>
      </trkpt>
      <trkpt lat="42.86148" lon="0.2617">
        <ele>1734</ele>
        <time>2021-12-31T12:24:23Z</time>
      </trkpt>
      <trkpt lat="42.86116" lon="0.26166">
        <ele>1725</ele>
        <time>2021-12-31T12:24:30Z</time>
      </trkpt>
      <trkpt lat="42.86086" lon="0.26178">
        <ele>1716</ele>
        <time>2021-12-31T12:24:37Z</time>
      </trkpt>
      <trkpt lat="42.86065" lon="0.26207">
        <ele>1710</ele>
        <time>2021-12-31T12:24:44Z</time>
      </trkpt>
      <trkpt lat="42.86038" lon="0.26225">
        <ele>1704</ele>
        <time>2021-12-31T12:24:51Z</time>
      </trkpt>
      <trkpt lat="42.86013" lon="0.2625">
        <ele>1698</ele>
        <time>2021-12-31T12:24:58Z</time>
      </trkpt>
      <trkpt lat="42.85987" lon="0.26279">
        <ele>1689</ele>
        <time>2021-12-31T12:25:04Z</time>
      </trkpt>
      <trkpt lat="42.85972" lon="0.26291">
        <ele>1686</ele>
        <time>2021-12-31T12:25:07Z</time>
      </trkpt>
      <trkpt lat="42.85957" lon="0.26296">
        <ele>1681</ele>
        <time>2021-12-31T12:25:10Z</time>
      </trkpt>
      <trkpt lat="42.85939" lon="0.26301">
        <ele>1679</ele>
        <time>2021-12-31T12:25:13Z</time>
      </trkpt>
      <trkpt lat="42.85925" lon="0.26301">
        <ele>1674</ele>
        <time>2021-12-31T12:25:15Z</time>
      </trkpt>
      <trkpt lat="42.85908" lon="0.26312">
        <ele>1671</ele>
        <time>2021-12-31T12:25:18Z</time>
      </trkpt>
      <trkpt lat="42.85896" lon="0.26325">
        <ele>1664</ele>
        <time>2021-12-31T12:25:22Z</time>
      </trkpt>
      <trkpt lat="42.85881" lon="0.26335">
        <ele>1661</ele>
        <time>2021-12-31T12:25:26Z</time>
      </trkpt>
      <trkpt lat="42.85872" lon="0.26353">
        <ele>1655</ele>
        <time>2021-12-31T12:25:33Z</time>
      </trkpt>
      <trkpt lat="42.85857" lon="0.26352">
        <ele>1654</ele>
        <time>2021-12-31T12:25:52Z</time>
      </trkpt>
      <trkpt lat="42.85842" lon="0.26362">
        <ele>1650</ele>
        <time>2021-12-31T12:26:01Z</time>
      </trkpt>
      <trkpt lat="42.85833" lon="0.2638">
        <ele>1649</ele>
        <time>2021-12-31T12:26:09Z</time>
      </trkpt>
      <trkpt lat="42.85824" lon="0.26397">
        <ele>1646</ele>
        <time>2021-12-31T12:26:17Z</time>
      </trkpt>
      <trkpt lat="42.85816" lon="0.26413">
        <ele>1644</ele>
        <time>2021-12-31T12:26:27Z</time>
      </trkpt>
      <trkpt lat="42.85808" lon="0.2643">
        <ele>1640</ele>
        <time>2021-12-31T12:26:31Z</time>
      </trkpt>
      <trkpt lat="42.85801" lon="0.26449">
        <ele>1639</ele>
        <time>2021-12-31T12:26:37Z</time>
      </trkpt>
      <trkpt lat="42.85796" lon="0.26469">
        <ele>1634</ele>
        <time>2021-12-31T12:26:45Z</time>
      </trkpt>
      <trkpt lat="42.85788" lon="0.26489">
        <ele>1632</ele>
        <time>2021-12-31T12:26:52Z</time>
      </trkpt>
      <trkpt lat="42.85785" lon="0.2651">
        <ele>1623</ele>
        <time>2021-12-31T12:27:14Z</time>
      </trkpt>
      <trkpt lat="42.85777" lon="0.26529">
        <ele>1620</ele>
        <time>2021-12-31T12:27:24Z</time>
      </trkpt>
      <trkpt lat="42.85769" lon="0.26546">
        <ele>1613</ele>
        <time>2021-12-31T12:27:34Z</time>
      </trkpt>
      <trkpt lat="42.85761" lon="0.26563">
        <ele>1609</ele>
        <time>2021-12-31T12:27:48Z</time>
      </trkpt>
      <trkpt lat="42.85753" lon="0.26581">
        <ele>1602</ele>
        <time>2021-12-31T12:27:56Z</time>
      </trkpt>
      <trkpt lat="42.85746" lon="0.26599">
        <ele>1599</ele>
        <time>2021-12-31T12:28:04Z</time>
      </trkpt>
      <trkpt lat="42.85745" lon="0.26623">
        <ele>1592</ele>
        <time>2021-12-31T12:28:09Z</time>
      </trkpt>
      <trkpt lat="42.85743" lon="0.26648">
        <ele>1585</ele>
        <time>2021-12-31T12:28:12Z</time>
      </trkpt>
      <trkpt lat="42.8573" lon="0.26658">
        <ele>1572</ele>
        <time>2021-12-31T12:28:16Z</time>
      </trkpt>
      <trkpt lat="42.85716" lon="0.26669">
        <ele>1568</ele>
        <time>2021-12-31T12:28:20Z</time>
      </trkpt>
      <trkpt lat="42.85703" lon="0.26681">
        <ele>1561</ele>
        <time>2021-12-31T12:29:21Z</time>
      </trkpt>
      <trkpt lat="42.85697" lon="0.267">
        <ele>1557</ele>
        <time>2021-12-31T12:31:35Z</time>
      </trkpt>
      <trkpt lat="42.85686" lon="0.26714">
        <ele>1553</ele>
        <time>2021-12-31T12:31:40Z</time>
      </trkpt>
      <trkpt lat="42.85673" lon="0.26728">
        <ele>1549</ele>
        <time>2021-12-31T12:31:45Z</time>
      </trkpt>
      <trkpt lat="42.85657" lon="0.26738">
        <ele>1546</ele>
        <time>2021-12-31T12:31:49Z</time>
      </trkpt>
      <trkpt lat="42.85645" lon="0.26753">
        <ele>1542</ele>
        <time>2021-12-31T12:31:53Z</time>
      </trkpt>
      <trkpt lat="42.8563" lon="0.26763">
        <ele>1539</ele>
        <time>2021-12-31T12:31:56Z</time>
      </trkpt>
      <trkpt lat="42.85612" lon="0.26772">
        <ele>1534</ele>
        <time>2021-12-31T12:32:00Z</time>
      </trkpt>
      <trkpt lat="42.85601" lon="0.26791">
        <ele>1531</ele>
        <time>2021-12-31T12:32:04Z</time>
      </trkpt>
      <trkpt lat="42.85588" lon="0.26803">
        <ele>1527</ele>
        <time>2021-12-31T12:32:09Z</time>
      </trkpt>
      <trkpt lat="42.85575" lon="0.26819">
        <ele>1522</ele>
        <time>2021-12-31T12:32:13Z</time>
      </trkpt>
      <trkpt lat="42.85562" lon="0.26836">
        <ele>1518</ele>
        <time>2021-12-31T12:32:17Z</time>
      </trkpt>
      <trkpt lat="42.85557" lon="0.26857">
        <ele>1512</ele>
        <time>2021-12-31T12:32:21Z</time>
      </trkpt>
      <trkpt lat="42.85544" lon="0.26868">
        <ele>1508</ele>
        <time>2021-12-31T12:32:25Z</time>
      </trkpt>
      <trkpt lat="42.85529" lon="0.26877">
        <ele>1503</ele>
        <time>2021-12-31T12:32:29Z</time>
      </trkpt>
      <trkpt lat="42.85523" lon="0.26897">
        <ele>1501</ele>
        <time>2021-12-31T12:32:34Z</time>
      </trkpt>
      <trkpt lat="42.85526" lon="0.26916">
        <ele>1499</ele>
        <time>2021-12-31T12:32:38Z</time>
      </trkpt>
      <trkpt lat="42.85526" lon="0.26936">
        <ele>1498</ele>
        <time>2021-12-31T12:32:43Z</time>
      </trkpt>
      <trkpt lat="42.85509" lon="0.2694">
        <ele>1495</ele>
        <time>2021-12-31T12:32:49Z</time>
      </trkpt>
      <trkpt lat="42.85494" lon="0.26948">
        <ele>1483</ele>
        <time>2021-12-31T12:32:54Z</time>
      </trkpt>
      <trkpt lat="42.85484" lon="0.26965">
        <ele>1480</ele>
        <time>2021-12-31T12:32:57Z</time>
      </trkpt>
      <trkpt lat="42.85476" lon="0.26982">
        <ele>1474</ele>
        <time>2021-12-31T12:33:01Z</time>
      </trkpt>
      <trkpt lat="42.85459" lon="0.26981">
        <ele>1472</ele>
        <time>2021-12-31T12:33:05Z</time>
      </trkpt>
      <trkpt lat="42.85445" lon="0.26968">
        <ele>1466</ele>
        <time>2021-12-31T12:33:09Z</time>
      </trkpt>
      <trkpt lat="42.85435" lon="0.26987">
        <ele>1464</ele>
        <time>2021-12-31T12:33:12Z</time>
      </trkpt>
      <trkpt lat="42.85429" lon="0.27005">
        <ele>1461</ele>
        <time>2021-12-31T12:33:15Z</time>
      </trkpt>
      <trkpt lat="42.85421" lon="0.27007">
        <ele>1458</ele>
        <time>2021-12-31T12:33:17Z</time>
      </trkpt>
      <trkpt lat="42.85418" lon="0.27012">
        <ele>1457</ele>
        <time>2021-12-31T12:33:18Z</time>
      </trkpt>
      <trkpt lat="42.8539" lon="0.27027">
        <ele>1444</ele>
        <time>2021-12-31T12:33:23Z</time>
      </trkpt>
      <trkpt lat="42.85385" lon="0.27032">
        <ele>1441</ele>
        <time>2021-12-31T12:33:24Z</time>
      </trkpt>
      <trkpt lat="42.8538" lon="0.27037">
        <ele>1439</ele>
        <time>2021-12-31T12:33:25Z</time>
      </trkpt>
      <trkpt lat="42.85327" lon="0.27093">
        <ele>1419</ele>
        <time>2021-12-31T12:33:41Z</time>
      </trkpt>
      <trkpt lat="42.85317" lon="0.27108">
        <ele>1416</ele>
        <time>2021-12-31T12:33:44Z</time>
      </trkpt>
      <trkpt lat="42.853" lon="0.27126">
        <ele>1413</ele>
        <time>2021-12-31T12:33:48Z</time>
      </trkpt>
      <trkpt lat="42.85295" lon="0.27128">
        <ele>1412</ele>
        <time>2021-12-31T12:33:49Z</time>
      </trkpt>
      <trkpt lat="42.85289" lon="0.27126">
        <ele>1411</ele>
        <time>2021-12-31T12:33:50Z</time>
      </trkpt>
      <trkpt lat="42.85282" lon="0.27126">
        <ele>1410</ele>
        <time>2021-12-31T12:33:51Z</time>
      </trkpt>
      <trkpt lat="42.85276" lon="0.27129">
        <ele>1410</ele>
        <time>2021-12-31T12:33:52Z</time>
      </trkpt>
      <trkpt lat="42.8527" lon="0.27128">
        <ele>1409</ele>
        <time>2021-12-31T12:33:53Z</time>
      </trkpt>
      <trkpt lat="42.85264" lon="0.2713">
        <ele>1408</ele>
        <time>2021-12-31T12:33:54Z</time>
      </trkpt>
      <trkpt lat="42.85258" lon="0.2713">
        <ele>1407</ele>
        <time>2021-12-31T12:33:55Z</time>
      </trkpt>
      <trkpt lat="42.85251" lon="0.27128">
        <ele>1406</ele>
        <time>2021-12-31T12:33:56Z</time>
      </trkpt>
      <trkpt lat="42.85244" lon="0.27129">
        <ele>1404</ele>
        <time>2021-12-31T12:33:57Z</time>
      </trkpt>
      <trkpt lat="42.85226" lon="0.27146">
        <ele>1400</ele>
        <time>2021-12-31T12:34:00Z</time>
      </trkpt>
      <trkpt lat="42.85219" lon="0.2716">
        <ele>1398</ele>
        <time>2021-12-31T12:34:02Z</time>
      </trkpt>
      <trkpt lat="42.85176" lon="0.27207">
        <ele>1391</ele>
        <time>2021-12-31T12:34:11Z</time>
      </trkpt>
      <trkpt lat="42.85171" lon="0.27212">
        <ele>1390</ele>
        <time>2021-12-31T12:34:12Z</time>
      </trkpt>
      <trkpt lat="42.85157" lon="0.27245">
        <ele>1387</ele>
        <time>2021-12-31T12:34:16Z</time>
      </trkpt>
      <trkpt lat="42.85156" lon="0.27253">
        <ele>1386</ele>
        <time>2021-12-31T12:34:17Z</time>
      </trkpt>
      <trkpt lat="42.85157" lon="0.27259">
        <ele>1386</ele>
        <time>2021-12-31T12:34:18Z</time>
      </trkpt>
      <trkpt lat="42.85153" lon="0.27262">
        <ele>1385</ele>
        <time>2021-12-31T12:34:19Z</time>
      </trkpt>
      <trkpt lat="42.8515" lon="0.27267">
        <ele>1385</ele>
        <time>2021-12-31T12:34:20Z</time>
      </trkpt>
      <trkpt lat="42.85151" lon="0.27274">
        <ele>1384</ele>
        <time>2021-12-31T12:34:22Z</time>
      </trkpt>
      <trkpt lat="42.8515" lon="0.27283">
        <ele>1384</ele>
        <time>2021-12-31T12:34:24Z</time>
      </trkpt>
      <trkpt lat="42.85147" lon="0.27288">
        <ele>1384</ele>
        <time>2021-12-31T12:34:26Z</time>
      </trkpt>
      <trkpt lat="42.85141" lon="0.273">
        <ele>1380</ele>
        <time>2021-12-31T12:35:45Z</time>
      </trkpt>
      <trkpt lat="42.85146" lon="0.27302">
        <ele>1379</ele>
        <time>2021-12-31T12:36:53Z</time>
      </trkpt>
      <trkpt lat="42.8515" lon="0.27302">
        <ele>1375</ele>
        <time>2021-12-31T12:39:18Z</time>
      </trkpt>
      <trkpt lat="42.85148" lon="0.27301">
        <ele>1373</ele>
        <time>2021-12-31T12:42:32Z</time>
      </trkpt>
    </trkseg>
  </trk>
</gpx>